Time,TemperatureF,DewpointF,PressureIn,WindDirection,WindDirectionDegrees,WindSpeedMPH,WindSpeedGustMPH,Humidity,HourlyPrecipIn,Conditions,Clouds,dailyrainin,SolarRadiationWatts/m^2,SoftwareType,DateUTC
2013-03-02 00:00:00,26.5,24.2,30.20,NW,319,0.0,2.0,91,0.00,,SCT011,0.00,0.00,VWS V14.01,2013-03-02 06:00:00,
2013-03-02 00:01:00,26.3,24.0,30.20,WNW,286,0.0,0.0,91,0.00,,OVC011,0.00,0.00,VWS V14.01,2013-03-02 06:01:00,
2013-03-02 00:05:00,26.5,24.2,30.20,North,355,0.0,3.0,91,0.00,,SCT011,0.00,0.00,VWS V14.01,2013-03-02 06:05:00,
2013-03-02 00:06:00,26.3,24.0,30.20,WNW,286,0.0,0.0,91,0.00,,,0.00,0.00,VWS V14.01,2013-03-02 06:06:00,
2013-03-02 00:10:00,26.5,24.2,30.20,North,355,0.0,2.0,91,0.00,,SCT011,0.00,0.00,VWS V14.01,2013-03-02 06:10:00,
2013-03-02 00:11:00,26.3,24.0,30.20,WNW,286,0.0,0.0,91,0.00,,,0.00,0.00,VWS V14.01,2013-03-02 06:11:00,
2013-03-02 00:15:00,26.5,24.2,30.20,North,355,0.0,2.0,91,0.00,,SCT011,0.00,0.00,VWS V14.01,2013-03-02 06:15:00,
2013-03-02 00:16:00,26.3,24.0,30.20,WNW,286,0.0,0.0,91,0.00,,,0.00,0.00,VWS V14.01,2013-03-02 06:16:00,
2013-03-02 00:20:00,26.5,24.2,30.20,North,355,0.0,0.0,91,0.00,,SCT011,0.00,0.00,VWS V14.01,2013-03-02 06:20:00,
2013-03-02 00:21:00,26.3,24.0,30.20,WNW,286,0.0,0.0,91,0.00,,,0.00,0.00,VWS V14.01,2013-03-02 06:21:00,
2013-03-02 00:25:00,26.5,24.2,30.20,NW,324,0.0,5.0,91,0.00,,SCT011,0.00,0.00,VWS V14.01,2013-03-02 06:25:00,
2013-03-02 00:26:00,26.4,24.1,30.20,NNE,13,0.0,0.0,91,0.00,,,0.00,0.00,VWS V14.01,2013-03-02 06:26:00,
2013-03-02 00:30:00,26.5,24.2,30.21,NNW,329,0.0,4.0,91,0.00,,SCT011,0.00,0.00,VWS V14.01,2013-03-02 06:30:00,
2013-03-02 00:31:00,26.4,24.1,30.20,NNE,13,0.0,0.0,91,0.00,,,0.00,0.00,VWS V14.01,2013-03-02 06:31:00,
2013-03-02 00:35:00,26.5,24.2,30.21,WNW,300,0.0,3.0,91,0.00,,SCT011,0.00,0.00,VWS V14.01,2013-03-02 06:35:00,
2013-03-02 00:36:00,26.4,24.1,30.20,North,11,0.0,0.0,91,0.00,,,0.00,0.00,VWS V14.01,2013-03-02 06:36:00,
2013-03-02 00:40:00,26.4,24.1,30.21,North,9,0.0,2.0,91,0.00,,SCT011,0.00,0.00,VWS V14.01,2013-03-02 06:40:00,
2013-03-02 00:41:00,26.4,24.1,30.20,North,11,2.0,2.0,91,0.00,,,0.00,0.00,VWS V14.01,2013-03-02 06:41:00,
2013-03-02 00:45:00,26.4,24.1,30.21,North,9,0.0,0.0,91,0.00,,SCT011,0.00,0.00,VWS V14.01,2013-03-02 06:45:00,
2013-03-02 00:46:00,26.5,24.2,30.20,North,10,1.0,1.0,91,0.00,,,0.00,0.00,VWS V14.01,2013-03-02 06:46:00,
2013-03-02 00:50:00,26.4,24.1,30.21,North,351,0.0,3.0,91,0.00,,SCT011,0.00,0.00,VWS V14.01,2013-03-02 06:50:00,
2013-03-02 00:51:00,26.5,24.2,30.20,NW,318,0.0,0.0,91,0.00,,,0.00,0.00,VWS V14.01,2013-03-02 06:51:00,
2013-03-02 00:55:00,26.3,23.8,30.21,North,351,0.0,2.0,90,0.00,,SCT011,0.00,0.00,VWS V14.01,2013-03-02 06:55:00,
2013-03-02 00:56:00,26.5,24.2,30.20,NW,318,0.0,2.0,91,0.00,,,0.00,0.00,VWS V14.01,2013-03-02 06:56:00,
2013-03-02 01:00:00,26.2,23.7,30.21,West,276,1.0,2.0,90,0.00,,SCT011,0.00,0.00,VWS V14.01,2013-03-02 07:00:00,
2013-03-02 01:01:00,26.5,24.2,30.20,NW,319,0.0,0.0,91,0.00,,,0.00,0.00,VWS V14.01,2013-03-02 07:01:00,
2013-03-02 01:05:00,26.2,23.7,30.21,West,272,0.0,1.0,90,0.00,,SCT011,0.00,0.00,VWS V14.01,2013-03-02 07:05:00,
2013-03-02 01:06:00,26.5,24.2,30.20,North,355,0.0,0.0,91,0.00,,OVC010,0.00,0.00,VWS V14.01,2013-03-02 07:06:00,
2013-03-02 01:10:00,26.2,23.7,30.21,West,272,0.0,1.0,90,0.00,,SCT011,0.00,0.00,VWS V14.01,2013-03-02 07:10:00,
2013-03-02 01:11:00,26.5,24.2,30.20,North,355,0.0,0.0,91,0.00,,OVC010,0.00,0.00,VWS V14.01,2013-03-02 07:11:00,
2013-03-02 01:15:00,26.2,23.7,30.21,West,277,1.0,2.0,90,0.00,,SCT011,0.00,0.00,VWS V14.01,2013-03-02 07:15:00,
2013-03-02 01:16:00,26.5,24.2,30.20,North,355,0.0,0.0,91,0.00,,OVC010,0.00,0.00,VWS V14.01,2013-03-02 07:16:00,
2013-03-02 01:20:00,26.2,23.7,30.21,West,277,0.0,1.0,90,0.00,,SCT011,0.00,0.00,VWS V14.01,2013-03-02 07:20:00,
2013-03-02 01:21:00,26.5,24.2,30.20,North,355,0.0,1.0,91,0.00,,OVC010,0.00,0.00,VWS V14.01,2013-03-02 07:21:00,
2013-03-02 01:25:00,26.2,23.7,30.21,West,271,0.0,4.0,90,0.00,,SCT011,0.00,0.00,VWS V14.01,2013-03-02 07:25:00,
2013-03-02 01:26:00,26.5,24.2,30.20,NW,323,0.0,2.0,91,0.00,,OVC010,0.00,0.00,VWS V14.01,2013-03-02 07:26:00,
2013-03-02 01:30:00,26.2,23.7,30.20,North,355,0.0,2.0,90,0.00,,SCT011,0.00,0.00,VWS V14.01,2013-03-02 07:30:00,
2013-03-02 01:31:00,26.5,24.2,30.21,NNW,329,0.0,0.0,91,0.00,,OVC010,0.00,0.00,VWS V14.01,2013-03-02 07:31:00,
2013-03-02 01:35:00,26.1,23.6,30.20,WNW,296,0.0,2.0,90,0.00,,SCT011,0.00,0.00,VWS V14.01,2013-03-02 07:35:00,
2013-03-02 01:36:00,26.4,24.1,30.21,WNW,299,0.0,0.0,91,0.00,,OVC010,0.00,0.00,VWS V14.01,2013-03-02 07:36:00,
2013-03-02 01:40:00,26.1,23.6,30.20,NW,310,0.0,3.0,90,0.00,,SCT011,0.00,0.00,VWS V14.01,2013-03-02 07:40:00,
2013-03-02 01:42:00,26.4,24.1,30.21,North,9,0.0,0.0,91,0.00,,OVC010,0.00,0.00,VWS V14.01,2013-03-02 07:42:00,
2013-03-02 01:45:00,26.1,23.6,30.20,WNW,291,0.0,4.0,90,0.00,,SCT011,0.00,0.00,VWS V14.01,2013-03-02 07:45:00,
2013-03-02 01:47:00,26.4,24.1,30.21,North,9,0.0,0.0,91,0.00,,OVC010,0.00,0.00,VWS V14.01,2013-03-02 07:47:00,
2013-03-02 01:50:00,26.1,23.6,30.20,WNW,292,0.0,2.0,90,0.00,,SCT011,0.00,0.00,VWS V14.01,2013-03-02 07:50:00,
2013-03-02 01:52:00,26.3,24.0,30.21,North,350,0.0,2.0,91,0.00,,OVC010,0.00,0.00,VWS V14.01,2013-03-02 07:52:00,
2013-03-02 01:55:00,26.0,23.5,30.20,NW,322,0.0,2.0,90,0.00,,SCT011,0.00,0.00,VWS V14.01,2013-03-02 07:55:00,
2013-03-02 01:57:00,26.3,23.8,30.21,North,350,0.0,0.0,90,0.00,,OVC010,0.00,0.00,VWS V14.01,2013-03-02 07:57:00,
2013-03-02 02:00:00,26.0,23.5,30.20,NW,309,0.0,3.0,90,0.00,,SCT011,0.00,0.00,VWS V14.01,2013-03-02 08:00:00,
2013-03-02 02:02:00,26.2,23.7,30.21,West,276,0.0,0.0,90,0.00,,,0.00,0.00,VWS V14.01,2013-03-02 08:02:00,
2013-03-02 02:05:00,26.0,23.5,30.20,WNW,296,0.0,2.0,90,0.00,,SCT011,0.00,0.00,VWS V14.01,2013-03-02 08:05:00,
2013-03-02 02:07:00,26.2,23.7,30.21,West,272,0.0,0.0,90,0.00,,,0.00,0.00,VWS V14.01,2013-03-02 08:07:00,
2013-03-02 02:10:00,26.0,23.5,30.20,WNW,296,0.0,1.0,90,0.00,,SCT011,0.00,0.00,VWS V14.01,2013-03-02 08:10:00,
2013-03-02 02:12:00,26.2,23.7,30.21,West,272,0.0,0.0,90,0.00,,,0.00,0.00,VWS V14.01,2013-03-02 08:12:00,
2013-03-02 02:15:00,25.9,23.4,30.20,NW,307,0.0,2.0,90,0.00,,SCT011,0.00,0.00,VWS V14.01,2013-03-02 08:15:00,
2013-03-02 02:17:00,26.2,23.7,30.21,West,276,0.0,1.0,90,0.00,,,0.00,0.00,VWS V14.01,2013-03-02 08:17:00,
2013-03-02 02:20:00,25.9,23.4,30.20,NW,323,0.0,2.0,90,0.00,,SCT011,0.00,0.00,VWS V14.01,2013-03-02 08:20:00,
2013-03-02 02:22:00,26.2,23.7,30.21,NW,318,2.0,2.0,90,0.00,,,0.00,0.00,VWS V14.01,2013-03-02 08:22:00,
2013-03-02 02:25:00,25.8,23.3,30.20,SW,233,4.0,4.0,90,0.00,,SCT011,0.00,0.00,VWS V14.01,2013-03-02 08:25:00,
2013-03-02 02:27:00,26.2,23.7,30.21,West,271,0.0,0.0,90,0.00,,,0.00,0.00,VWS V14.01,2013-03-02 08:27:00,
2013-03-02 02:30:00,25.8,23.3,30.20,NNW,339,0.0,5.0,90,0.00,,SCT011,0.00,0.00,VWS V14.01,2013-03-02 08:30:00,
2013-03-02 02:32:00,26.1,23.6,30.20,North,355,0.0,0.0,90,0.00,,,0.00,0.00,VWS V14.01,2013-03-02 08:32:00,
2013-03-02 02:35:00,25.8,23.3,30.20,NNW,339,0.0,1.0,90,0.00,,SCT011,0.00,0.00,VWS V14.01,2013-03-02 08:35:00,
2013-03-02 02:37:00,26.1,23.6,30.20,WNW,299,0.0,1.0,90,0.00,,,0.00,0.00,VWS V14.01,2013-03-02 08:37:00,
2013-03-02 02:40:00,25.8,23.3,30.20,North,355,0.0,2.0,90,0.00,,SCT011,0.00,0.00,VWS V14.01,2013-03-02 08:40:00,
2013-03-02 02:42:00,26.1,23.6,30.20,NW,310,0.0,0.0,90,0.00,,,0.00,0.00,VWS V14.01,2013-03-02 08:42:00,
2013-03-02 02:45:00,25.7,23.2,30.20,NNW,329,0.0,3.0,90,0.00,,SCT011,0.00,0.00,VWS V14.01,2013-03-02 08:45:00,
2013-03-02 02:47:00,26.1,23.6,30.20,WNW,292,0.0,0.0,90,0.00,,,0.00,0.00,VWS V14.01,2013-03-02 08:47:00,
2013-03-02 02:50:00,25.6,22.8,30.20,West,263,0.0,6.0,89,0.00,,SCT011,0.00,0.00,VWS V14.01,2013-03-02 08:50:00,
2013-03-02 02:52:00,26.0,23.5,30.20,WNW,292,0.0,0.0,90,0.00,,,0.00,0.00,VWS V14.01,2013-03-02 08:52:00,
2013-03-02 02:55:00,25.6,22.8,30.20,West,268,0.0,1.0,89,0.00,,SCT011,0.00,0.00,VWS V14.01,2013-03-02 08:55:00,
2013-03-02 02:57:00,26.0,23.5,30.20,NW,322,0.0,0.0,90,0.00,,,0.00,0.00,VWS V14.01,2013-03-02 08:57:00,
2013-03-02 03:00:00,25.5,22.7,30.20,North,350,1.0,2.0,89,0.00,,SCT011,0.00,0.00,VWS V14.01,2013-03-02 09:00:00,
2013-03-02 03:02:00,26.0,23.5,30.20,NW,309,0.0,0.0,90,0.00,,OVC012,0.00,0.00,VWS V14.01,2013-03-02 09:02:00,
2013-03-02 03:05:00,25.4,22.6,30.20,NW,323,0.0,4.0,89,0.00,,SCT011,0.00,0.00,VWS V14.01,2013-03-02 09:05:00,
2013-03-02 03:07:00,26.0,23.5,30.20,WNW,295,0.0,0.0,90,0.00,,OVC012,0.00,0.00,VWS V14.01,2013-03-02 09:07:00,
2013-03-02 03:10:00,25.3,22.2,30.20,West,273,0.0,3.0,88,0.00,,SCT011,0.00,0.00,VWS V14.01,2013-03-02 09:10:00,
2013-03-02 03:12:00,25.9,23.4,30.20,WNW,296,0.0,1.0,90,0.00,,OVC012,0.00,0.00,VWS V14.01,2013-03-02 09:12:00,
2013-03-02 03:15:00,25.2,22.1,30.20,North,360,0.0,3.0,88,0.00,,SCT011,0.00,0.00,VWS V14.01,2013-03-02 09:15:00,
2013-03-02 03:17:00,25.9,23.4,30.20,NW,324,0.0,2.0,90,0.00,,OVC012,0.00,0.00,VWS V14.01,2013-03-02 09:17:00,
2013-03-02 03:20:00,25.1,22.0,30.20,NW,326,0.0,3.0,88,0.00,,SCT011,0.00,0.00,VWS V14.01,2013-03-02 09:20:00,
2013-03-02 03:23:00,25.9,23.4,30.20,NW,324,0.0,0.0,90,0.00,,OVC012,0.00,0.00,VWS V14.01,2013-03-02 09:23:00,
2013-03-02 03:25:00,25.0,22.0,30.20,North,355,0.0,2.0,88,0.00,,SCT011,0.00,0.00,VWS V14.01,2013-03-02 09:25:00,
2013-03-02 03:28:00,25.8,23.3,30.20,NNW,338,1.0,5.0,90,0.00,,OVC012,0.00,0.00,VWS V14.01,2013-03-02 09:28:00,
2013-03-02 03:30:00,24.9,21.9,30.20,North,355,0.0,1.0,88,0.00,,SCT011,0.00,0.00,VWS V14.01,2013-03-02 09:30:00,
2013-03-02 03:33:00,25.8,23.3,30.20,NNW,338,0.0,1.0,90,0.00,,OVC012,0.00,0.00,VWS V14.01,2013-03-02 09:33:00,
2013-03-02 03:35:00,24.7,21.4,30.20,North,10,2.0,3.0,87,0.00,,SCT011,0.00,0.00,VWS V14.01,2013-03-02 09:35:00,
2013-03-02 03:38:00,25.8,23.3,30.20,NNW,340,0.0,1.0,90,0.00,,OVC012,0.00,0.00,VWS V14.01,2013-03-02 09:38:00,
2013-03-02 03:40:00,24.6,21.3,30.20,NNE,16,0.0,4.0,87,0.00,,SCT011,0.00,0.00,VWS V14.01,2013-03-02 09:40:00,
2013-03-02 03:43:00,25.7,23.2,30.20,North,360,1.0,3.0,90,0.00,,OVC012,0.00,0.00,VWS V14.01,2013-03-02 09:43:00,
2013-03-02 03:45:00,24.5,21.2,30.20,NNE,16,0.0,0.0,87,0.00,,SCT011,0.00,0.00,VWS V14.01,2013-03-02 09:45:00,
2013-03-02 03:48:00,25.7,23.2,30.20,West,263,0.0,6.0,90,0.00,,OVC039,0.00,0.00,VWS V14.01,2013-03-02 09:48:00,
2013-03-02 03:50:00,24.5,21.2,30.20,NW,313,0.0,3.0,87,0.00,,SCT011,0.00,0.00,VWS V14.01,2013-03-02 09:50:00,
2013-03-02 03:53:00,25.6,22.8,30.20,West,263,0.0,1.0,89,0.00,,OVC039,0.00,0.00,VWS V14.01,2013-03-02 09:53:00,
2013-03-02 03:55:00,24.4,21.1,30.20,NNW,336,0.0,2.0,87,0.00,,SCT011,0.00,0.00,VWS V14.01,2013-03-02 09:55:00,
2013-03-02 03:58:00,25.5,22.7,30.20,NNW,345,1.0,1.0,89,0.00,,OVC039,0.00,0.00,VWS V14.01,2013-03-02 09:58:00,
2013-03-02 04:00:00,24.4,21.1,30.21,North,360,2.0,4.0,87,0.00,,SCT011,0.00,0.00,VWS V14.01,2013-03-02 10:00:00,
2013-03-02 04:03:00,25.4,22.6,30.20,NNE,13,4.0,4.0,89,0.00,,OVC039,0.00,0.00,VWS V14.01,2013-03-02 10:03:00,
2013-03-02 04:05:00,24.4,21.1,30.21,NNE,22,0.0,2.0,87,0.00,,SCT011,0.00,0.00,VWS V14.01,2013-03-02 10:05:00,
2013-03-02 04:08:00,25.3,22.5,30.20,North,5,1.0,2.0,89,0.00,,OVC039,0.00,0.00,VWS V14.01,2013-03-02 10:08:00,
2013-03-02 04:10:00,24.4,21.1,30.21,NNW,346,0.0,2.0,87,0.00,,SCT011,0.00,0.00,VWS V14.01,2013-03-02 10:10:00,
2013-03-02 04:14:00,25.2,22.1,30.20,North,5,0.0,3.0,88,0.00,,OVC039,0.00,0.00,VWS V14.01,2013-03-02 10:14:00,
2013-03-02 04:15:00,24.4,20.8,30.21,North,350,0.0,2.0,86,0.00,,SCT011,0.00,0.00,VWS V14.01,2013-03-02 10:15:00,
2013-03-02 04:19:00,25.1,22.0,30.20,NW,306,2.0,3.0,88,0.00,,OVC039,0.00,0.00,VWS V14.01,2013-03-02 10:19:00,
2013-03-02 04:20:00,24.4,20.5,30.21,NNE,12,0.0,4.0,85,0.00,,SCT011,0.00,0.00,VWS V14.01,2013-03-02 10:20:00,
2013-03-02 04:24:00,25.0,22.0,30.20,North,351,1.0,2.0,88,0.00,,OVC039,0.00,0.00,VWS V14.01,2013-03-02 10:24:00,
2013-03-02 04:25:00,24.4,20.5,30.21,NNW,346,0.0,2.0,85,0.00,,SCT011,0.00,0.00,VWS V14.01,2013-03-02 10:25:00,
2013-03-02 04:29:00,24.9,21.9,30.20,North,355,0.0,1.0,88,0.00,,OVC039,0.00,0.00,VWS V14.01,2013-03-02 10:29:00,
2013-03-02 04:30:00,24.4,20.3,30.22,ENE,64,0.0,5.0,84,0.00,,SCT011,0.00,0.00,VWS V14.01,2013-03-02 10:30:00,
2013-03-02 04:34:00,24.8,21.5,30.20,North,355,1.0,2.0,87,0.00,,OVC039,0.00,0.00,VWS V14.01,2013-03-02 10:34:00,
2013-03-02 04:35:00,24.4,20.3,30.22,NNW,330,0.0,3.0,84,0.00,,SCT011,0.00,0.00,VWS V14.01,2013-03-02 10:35:00,
2013-03-02 04:39:00,24.6,21.3,30.20,NNE,16,0.0,4.0,87,0.00,,OVC039,0.00,0.00,VWS V14.01,2013-03-02 10:39:00,
2013-03-02 04:40:00,24.4,20.0,30.22,NNW,333,0.0,3.0,83,0.00,,SCT011,0.00,0.00,VWS V14.01,2013-03-02 10:40:00,
2013-03-02 04:45:00,24.5,21.2,30.20,NNE,15,0.0,0.0,87,0.00,,OVC039,0.00,0.00,VWS V14.01,2013-03-02 10:45:00,
2013-03-02 04:50:00,24.5,21.2,30.20,NW,313,1.0,3.0,87,0.00,,OVC039,0.00,0.00,VWS V14.01,2013-03-02 10:50:00,
2013-03-02 04:55:00,24.4,21.1,30.20,NW,313,0.0,2.0,87,0.00,,OVC039,0.00,0.00,VWS V14.01,2013-03-02 10:55:00,
2013-03-02 05:00:00,24.4,21.1,30.21,WNW,289,0.0,4.0,87,0.00,,OVC039,0.00,0.00,VWS V14.01,2013-03-02 11:00:00,
2013-03-02 05:05:00,24.4,21.1,30.21,NNE,22,0.0,2.0,87,0.00,,OVC034,0.00,0.00,VWS V14.01,2013-03-02 11:05:00,
2013-03-02 05:10:00,24.4,21.1,30.21,NNW,346,0.0,2.0,87,0.00,,OVC034,0.00,0.00,VWS V14.01,2013-03-02 11:10:00,
2013-03-02 05:15:00,24.4,20.8,30.21,North,350,0.0,2.0,86,0.00,,OVC034,0.00,0.00,VWS V14.01,2013-03-02 11:15:00,
2013-03-02 05:20:00,24.4,20.5,30.21,North,11,0.0,4.0,85,0.00,,OVC034,0.00,0.00,VWS V14.01,2013-03-02 11:20:00,
2013-03-02 05:25:00,24.4,20.5,30.21,NNW,346,0.0,2.0,85,0.00,,OVC034,0.00,0.00,VWS V14.01,2013-03-02 11:25:00,
2013-03-02 05:30:00,24.4,20.3,30.22,ENE,64,0.0,5.0,84,0.00,,OVC034,0.00,0.00,VWS V14.01,2013-03-02 11:30:00,
2013-03-02 05:35:00,24.4,20.3,30.22,NNW,330,0.0,3.0,84,0.00,,OVC034,0.00,0.00,VWS V14.01,2013-03-02 11:35:00,
2013-03-02 05:40:00,24.4,20.0,30.22,NNW,333,0.0,3.0,83,0.00,,OVC034,0.00,0.00,VWS V14.01,2013-03-02 11:40:00,
2013-03-02 05:45:00,24.4,19.7,30.22,NNW,345,2.0,2.0,82,0.00,,OVC034,0.00,0.00,VWS V14.01,2013-03-02 11:45:00,
2013-03-02 05:50:00,24.4,19.4,30.22,NNW,337,1.0,3.0,81,0.00,,OVC034,0.00,0.00,VWS V14.01,2013-03-02 11:50:00,
2013-03-02 05:55:00,24.2,18.3,30.24,North,355,0.0,3.0,78,0.00,,SCT011,0.00,0.00,VWS V14.01,2013-03-02 11:55:00,
2013-03-02 05:56:00,24.4,19.1,30.22,NW,311,2.0,4.0,80,0.00,,OVC034,0.00,0.00,VWS V14.01,2013-03-02 11:56:00,
2013-03-02 06:00:00,24.2,18.3,30.25,NNW,342,1.0,2.0,78,0.00,,SCT011,0.00,5.00,VWS V14.01,2013-03-02 12:00:00,
2013-03-02 06:01:00,24.4,19.1,30.23,North,355,2.0,4.0,80,0.00,,OVC034,0.00,0.00,VWS V14.01,2013-03-02 12:01:00,
2013-03-02 06:05:00,24.2,18.6,30.25,North,351,1.0,3.0,79,0.00,,SCT011,0.00,7.00,VWS V14.01,2013-03-02 12:05:00,
2013-03-02 06:06:00,24.4,18.8,30.23,North,351,1.0,4.0,79,0.00,,OVC025,0.00,0.00,VWS V14.01,2013-03-02 12:06:00,
2013-03-02 06:10:00,24.2,18.6,30.25,North,349,1.0,2.0,79,0.00,,SCT011,0.00,9.00,VWS V14.01,2013-03-02 12:10:00,
2013-03-02 06:11:00,24.4,18.5,30.23,North,355,1.0,6.0,78,0.00,,OVC025,0.00,0.00,VWS V14.01,2013-03-02 12:11:00,
2013-03-02 06:15:00,24.2,18.6,30.25,NNW,333,1.0,4.0,79,0.00,,SCT011,0.00,11.00,VWS V14.01,2013-03-02 12:15:00,
2013-03-02 06:16:00,24.4,18.5,30.23,North,360,0.0,6.0,78,0.00,,OVC025,0.00,0.00,VWS V14.01,2013-03-02 12:16:00,
2013-03-02 06:20:00,24.2,18.6,30.25,NNE,13,1.0,4.0,79,0.00,,SCT011,0.00,14.00,VWS V14.01,2013-03-02 12:20:00,
2013-03-02 06:21:00,24.4,18.5,30.23,NNE,21,1.0,1.0,78,0.00,,OVC025,0.00,0.00,VWS V14.01,2013-03-02 12:21:00,
2013-03-02 06:25:00,24.2,18.6,30.25,North,355,0.0,2.0,79,0.00,,SCT011,0.00,16.00,VWS V14.01,2013-03-02 12:25:00,
2013-03-02 06:26:00,24.4,18.8,30.23,NNE,20,3.0,4.0,79,0.00,,OVC025,0.00,0.00,VWS V14.01,2013-03-02 12:26:00,
2013-03-02 06:30:00,24.3,19.0,30.26,North,355,0.0,2.0,80,0.00,,SCT011,0.00,19.00,VWS V14.01,2013-03-02 12:30:00,
2013-03-02 06:31:00,24.3,18.4,30.24,NNE,15,1.0,2.0,78,0.00,,OVC025,0.00,0.00,VWS V14.01,2013-03-02 12:31:00,
2013-03-02 06:35:00,24.3,19.0,30.26,North,360,0.0,2.0,80,0.00,,SCT011,0.00,23.00,VWS V14.01,2013-03-02 12:35:00,
2013-03-02 06:36:00,24.3,18.4,30.24,North,11,0.0,3.0,78,0.00,,OVC025,0.00,0.00,VWS V14.01,2013-03-02 12:36:00,
2013-03-02 06:40:00,24.3,19.0,30.26,NW,311,0.0,4.0,80,0.00,,SCT011,0.00,23.00,VWS V14.01,2013-03-02 12:40:00,
2013-03-02 06:41:00,24.3,18.4,30.24,NNE,23,0.0,0.0,78,0.00,,OVC025,0.00,0.00,VWS V14.01,2013-03-02 12:41:00,
2013-03-02 06:45:00,24.3,19.3,30.26,NW,310,0.0,1.0,81,0.00,,SCT011,0.00,25.00,VWS V14.01,2013-03-02 12:45:00,
2013-03-02 06:46:00,24.2,18.3,30.24,North,360,3.0,3.0,78,0.00,,OVC025,0.00,0.00,VWS V14.01,2013-03-02 12:46:00,
2013-03-02 06:50:00,24.4,19.4,30.26,WNW,299,0.0,4.0,81,0.00,,SCT011,0.00,25.00,VWS V14.01,2013-03-02 12:50:00,
2013-03-02 06:51:00,24.2,18.6,30.24,North,351,0.0,0.0,79,0.00,,OVC025,0.00,0.00,VWS V14.01,2013-03-02 12:51:00,
2013-03-02 06:55:00,24.4,19.4,30.26,WNW,300,0.0,1.0,81,0.00,,SCT011,0.00,28.00,VWS V14.01,2013-03-02 12:55:00,
2013-03-02 06:56:00,24.2,18.3,30.24,North,355,0.0,0.0,78,0.00,,OVC025,0.00,0.00,VWS V14.01,2013-03-02 12:56:00,
2013-03-02 07:00:00,24.4,19.4,30.26,North,360,1.0,3.0,81,0.00,,SCT011,0.00,30.00,VWS V14.01,2013-03-02 13:00:00,
2013-03-02 07:01:00,24.2,18.3,30.25,NNW,342,0.0,1.0,78,0.00,,OVC025,0.00,5.00,VWS V14.01,2013-03-02 13:01:00,
2013-03-02 07:05:00,24.4,19.4,30.26,NNE,16,0.0,6.0,81,0.00,,SCT011,0.00,33.00,VWS V14.01,2013-03-02 13:05:00,
2013-03-02 07:06:00,24.2,18.6,30.25,North,349,2.0,2.0,79,0.00,,OVC023,0.00,7.00,VWS V14.01,2013-03-02 13:06:00,
2013-03-02 07:10:00,24.4,19.4,30.26,North,360,0.0,2.0,81,0.00,,SCT011,0.00,35.00,VWS V14.01,2013-03-02 13:10:00,
2013-03-02 07:11:00,24.2,18.6,30.25,North,355,1.0,2.0,79,0.00,,OVC023,0.00,11.00,VWS V14.01,2013-03-02 13:11:00,
2013-03-02 07:15:00,24.4,19.7,30.27,North,5,0.0,2.0,82,0.00,,SCT011,0.00,39.00,VWS V14.01,2013-03-02 13:15:00,
2013-03-02 07:16:00,24.2,18.6,30.25,NNW,331,0.0,2.0,79,0.00,,OVC023,0.00,11.00,VWS V14.01,2013-03-02 13:16:00,
2013-03-02 07:20:00,24.4,19.7,30.27,NNW,348,0.0,1.0,82,0.00,,SCT011,0.00,44.00,VWS V14.01,2013-03-02 13:20:00,
2013-03-02 07:21:00,24.2,18.6,30.25,NNE,13,0.0,1.0,79,0.00,,OVC023,0.00,14.00,VWS V14.01,2013-03-02 13:21:00,
2013-03-02 07:25:00,24.5,19.8,30.27,NNW,344,1.0,3.0,82,0.00,,SCT011,0.00,49.00,VWS V14.01,2013-03-02 13:25:00,
2013-03-02 07:26:00,24.2,18.6,30.25,North,355,0.0,0.0,79,0.00,,OVC023,0.00,18.00,VWS V14.01,2013-03-02 13:26:00,
2013-03-02 07:30:00,24.5,19.8,30.28,NNW,338,0.0,2.0,82,0.00,,SCT011,0.00,56.00,VWS V14.01,2013-03-02 13:30:00,
2013-03-02 07:31:00,24.3,19.0,30.26,North,360,2.0,2.0,80,0.00,,OVC023,0.00,19.00,VWS V14.01,2013-03-02 13:31:00,
2013-03-02 07:35:00,24.4,19.7,30.28,NNW,334,1.0,4.0,82,0.00,,SCT011,0.00,60.00,VWS V14.01,2013-03-02 13:35:00,
2013-03-02 07:36:00,24.3,19.0,30.26,North,360,0.0,2.0,80,0.00,,OVC023,0.00,23.00,VWS V14.01,2013-03-02 13:36:00,
2013-03-02 07:40:00,24.5,19.8,30.28,NNW,336,0.0,3.0,82,0.00,,SCT011,0.00,70.00,VWS V14.01,2013-03-02 13:40:00,
2013-03-02 07:41:00,24.3,19.0,30.26,NW,311,0.0,0.0,80,0.00,,OVC023,0.00,23.00,VWS V14.01,2013-03-02 13:41:00,
2013-03-02 07:45:00,24.5,19.5,30.27,North,351,0.0,3.0,81,0.00,,SCT011,0.00,74.00,VWS V14.01,2013-03-02 13:45:00,
2013-03-02 07:46:00,24.3,19.3,30.26,NNE,24,4.0,4.0,81,0.00,,OVC023,0.00,25.00,VWS V14.01,2013-03-02 13:46:00,
2013-03-02 07:50:00,24.5,19.5,30.27,NNW,345,0.0,4.0,81,0.00,,SCT011,0.00,98.00,VWS V14.01,2013-03-02 13:50:00,
2013-03-02 07:51:00,24.3,19.3,30.26,WNW,299,0.0,1.0,81,0.00,,OVC023,0.00,26.00,VWS V14.01,2013-03-02 13:51:00,
2013-03-02 07:55:00,24.6,19.9,30.27,North,9,5.0,5.0,82,0.00,,SCT011,0.00,93.00,VWS V14.01,2013-03-02 13:55:00,
2013-03-02 07:56:00,24.4,19.4,30.26,WNW,300,0.0,0.0,81,0.00,,OVC023,0.00,28.00,VWS V14.01,2013-03-02 13:56:00,
2013-03-02 08:00:00,24.6,19.6,30.27,NNW,347,0.0,5.0,81,0.00,,SCT011,0.00,98.00,VWS V14.01,2013-03-02 14:00:00,
2013-03-02 08:01:00,24.4,19.4,30.26,North,355,1.0,6.0,81,0.00,,OVC023,0.00,32.00,VWS V14.01,2013-03-02 14:01:00,
2013-03-02 08:05:00,24.7,19.7,30.27,North,5,0.0,4.0,81,0.00,,SCT011,0.00,102.00,VWS V14.01,2013-03-02 14:05:00,
2013-03-02 08:06:00,24.4,19.4,30.26,NNE,16,0.0,0.0,81,0.00,,,0.00,33.00,VWS V14.01,2013-03-02 14:06:00,
2013-03-02 08:10:00,24.7,19.7,30.27,NNW,336,1.0,2.0,81,0.00,,SCT011,0.00,97.00,VWS V14.01,2013-03-02 14:10:00,
2013-03-02 08:11:00,24.4,19.4,30.26,North,360,0.0,0.0,81,0.00,,,0.00,35.00,VWS V14.01,2013-03-02 14:11:00,
2013-03-02 08:15:00,24.8,19.8,30.28,NNW,348,2.0,3.0,81,0.00,,SCT011,0.00,105.00,VWS V14.01,2013-03-02 14:15:00,
2013-03-02 08:16:00,24.4,19.7,30.27,North,5,0.0,0.0,82,0.00,,,0.00,40.00,VWS V14.01,2013-03-02 14:16:00,
2013-03-02 08:20:00,24.8,19.5,30.28,North,349,1.0,6.0,80,0.00,,SCT011,0.00,104.00,VWS V14.01,2013-03-02 14:20:00,
2013-03-02 08:22:00,24.5,19.8,30.27,NNW,347,0.0,1.0,82,0.00,,,0.00,46.00,VWS V14.01,2013-03-02 14:22:00,
2013-03-02 08:25:00,24.9,19.6,30.28,NNW,346,1.0,2.0,80,0.00,,SCT011,0.00,97.00,VWS V14.01,2013-03-02 14:25:00,
2013-03-02 08:27:00,24.5,19.8,30.27,NNW,344,0.0,1.0,82,0.00,,,0.00,49.00,VWS V14.01,2013-03-02 14:27:00,
2013-03-02 08:30:00,24.9,19.6,30.28,NE,42,4.0,4.0,80,0.00,,SCT011,0.00,107.00,VWS V14.01,2013-03-02 14:30:00,
2013-03-02 08:32:00,24.5,19.8,30.28,North,355,3.0,3.0,82,0.00,,,0.00,54.00,VWS V14.01,2013-03-02 14:32:00,
2013-03-02 08:35:00,24.9,19.3,30.28,North,5,2.0,4.0,79,0.00,,SCT011,0.00,111.00,VWS V14.01,2013-03-02 14:35:00,
2013-03-02 08:37:00,24.5,19.8,30.28,NNW,334,0.0,1.0,82,0.00,,,0.00,63.00,VWS V14.01,2013-03-02 14:37:00,
2013-03-02 08:40:00,24.8,19.2,30.28,North,349,2.0,6.0,79,0.00,,SCT011,0.00,109.00,VWS V14.01,2013-03-02 14:40:00,
2013-03-02 08:42:00,24.5,19.8,30.28,North,349,2.0,2.0,82,0.00,,,0.00,72.00,VWS V14.01,2013-03-02 14:42:00,
2013-03-02 08:45:00,24.8,19.2,30.28,North,5,1.0,4.0,79,0.00,,SCT011,0.00,137.00,VWS V14.01,2013-03-02 14:45:00,
2013-03-02 08:47:00,24.5,19.8,30.27,North,350,0.0,0.0,82,0.00,,,0.00,77.00,VWS V14.01,2013-03-02 14:47:00,
2013-03-02 08:50:00,24.8,19.2,30.28,North,10,2.0,3.0,79,0.00,,SCT011,0.00,169.00,VWS V14.01,2013-03-02 14:50:00,
2013-03-02 08:52:00,24.5,19.5,30.27,NNW,345,0.0,2.0,81,0.00,,,0.00,97.00,VWS V14.01,2013-03-02 14:52:00,
2013-03-02 08:55:00,24.9,19.3,30.28,North,350,0.0,3.0,79,0.00,,SCT011,0.00,178.00,VWS V14.01,2013-03-02 14:55:00,
2013-03-02 08:57:00,24.6,19.6,30.27,North,360,1.0,5.0,81,0.00,,,0.00,97.00,VWS V14.01,2013-03-02 14:57:00,
2013-03-02 09:00:00,25.0,18.8,30.28,WNW,298,3.0,5.0,77,0.00,,SCT011,0.00,230.00,VWS V14.01,2013-03-02 15:00:00,
2013-03-02 09:02:00,24.6,19.6,30.27,NNW,347,1.0,2.0,81,0.00,,,0.00,95.00,VWS V14.01,2013-03-02 15:02:00,
2013-03-02 09:05:00,25.1,18.6,30.28,WNW,289,0.0,7.0,76,0.00,,SCT011,0.00,218.00,VWS V14.01,2013-03-02 15:05:00,
2013-03-02 09:07:00,24.7,19.7,30.27,NNW,336,1.0,2.0,81,0.00,,OVC019,0.00,98.00,VWS V14.01,2013-03-02 15:07:00,
2013-03-02 09:10:00,25.3,18.5,30.28,North,355,0.0,5.0,75,0.00,,SCT011,0.00,207.00,VWS V14.01,2013-03-02 15:10:00,
2013-03-02 09:12:00,24.8,19.8,30.27,NNW,336,0.0,1.0,81,0.00,,OVC019,0.00,100.00,VWS V14.01,2013-03-02 15:12:00,
2013-03-02 09:15:00,25.4,18.6,30.28,North,355,0.0,5.0,75,0.00,,SCT011,0.00,211.00,VWS V14.01,2013-03-02 15:15:00,
2013-03-02 09:17:00,24.9,19.9,30.28,NNW,340,1.0,2.0,81,0.00,,OVC019,0.00,105.00,VWS V14.01,2013-03-02 15:17:00,
2013-03-02 09:20:00,25.5,18.7,30.28,West,280,5.0,7.0,75,0.00,,SCT011,0.00,225.00,VWS V14.01,2013-03-02 15:20:00,
2013-03-02 09:22:00,24.9,19.6,30.28,North,349,0.0,2.0,80,0.00,,OVC019,0.00,100.00,VWS V14.01,2013-03-02 15:22:00,
2013-03-02 09:25:00,25.6,18.5,30.28,NW,323,2.0,5.0,74,0.00,,SCT011,0.00,239.00,VWS V14.01,2013-03-02 15:25:00,
2013-03-02 09:27:00,24.9,19.6,30.28,North,350,2.0,3.0,80,0.00,,OVC019,0.00,95.00,VWS V14.01,2013-03-02 15:27:00,
2013-03-02 09:30:00,25.6,18.5,30.28,NNW,331,1.0,6.0,74,0.00,,SCT011,0.00,260.00,VWS V14.01,2013-03-02 15:30:00,
2013-03-02 09:32:00,24.9,19.6,30.28,North,10,0.0,4.0,80,0.00,,OVC019,0.00,116.00,VWS V14.01,2013-03-02 15:32:00,
2013-03-02 09:35:00,25.7,18.6,30.28,NNW,346,2.0,3.0,74,0.00,,SCT011,0.00,250.00,VWS V14.01,2013-03-02 15:35:00,
2013-03-02 09:37:00,24.9,19.3,30.28,North,360,0.0,3.0,79,0.00,,OVC019,0.00,105.00,VWS V14.01,2013-03-02 15:37:00,
2013-03-02 09:40:00,25.7,18.6,30.28,NE,42,3.0,4.0,74,0.00,,SCT011,0.00,227.00,VWS V14.01,2013-03-02 15:40:00,
2013-03-02 09:42:00,24.8,19.2,30.28,North,355,0.0,2.0,79,0.00,,OVC019,0.00,114.00,VWS V14.01,2013-03-02 15:42:00,
2013-03-02 09:45:00,25.8,18.7,30.29,NW,319,3.0,6.0,74,0.00,,SCT011,0.00,237.00,VWS V14.01,2013-03-02 15:45:00,
2013-03-02 09:47:00,24.8,19.2,30.28,East,80,0.0,2.0,79,0.00,,OVC019,0.00,148.00,VWS V14.01,2013-03-02 15:47:00,
2013-03-02 09:50:00,25.8,18.4,30.29,North,360,1.0,4.0,73,0.00,,SCT011,0.00,243.00,VWS V14.01,2013-03-02 15:50:00,
2013-03-02 09:52:00,24.8,19.2,30.28,North,360,0.0,3.0,79,0.00,,OVC019,0.00,172.00,VWS V14.01,2013-03-02 15:52:00,
2013-03-02 09:55:00,25.8,18.7,30.29,NNW,342,3.0,4.0,74,0.00,,SCT011,0.00,265.00,VWS V14.01,2013-03-02 15:55:00,
2013-03-02 09:57:00,24.9,19.0,30.28,NNW,345,2.0,5.0,78,0.00,,OVC019,0.00,190.00,VWS V14.01,2013-03-02 15:57:00,
2013-03-02 10:00:00,26.0,19.2,30.29,NW,313,0.0,3.0,75,0.00,,SCT011,0.00,262.00,VWS V14.01,2013-03-02 16:00:00,
2013-03-02 10:02:00,25.1,18.6,30.28,North,355,2.0,7.0,76,0.00,,OVC022,0.00,223.00,VWS V14.01,2013-03-02 16:02:00,
2013-03-02 10:05:00,26.2,19.4,30.29,WNW,296,2.0,3.0,75,0.00,,SCT011,0.00,267.00,VWS V14.01,2013-03-02 16:05:00,
2013-03-02 10:07:00,25.2,18.7,30.28,NNE,22,3.0,5.0,76,0.00,,OVC022,0.00,213.00,VWS V14.01,2013-03-02 16:07:00,
2013-03-02 10:10:00,26.3,19.2,30.29,North,355,0.0,7.0,74,0.00,,SCT011,0.00,276.00,VWS V14.01,2013-03-02 16:10:00,
2013-03-02 10:12:00,25.3,18.5,30.28,NNE,15,0.0,2.0,75,0.00,,OVC022,0.00,206.00,VWS V14.01,2013-03-02 16:12:00,
2013-03-02 10:15:00,26.4,19.2,30.28,North,355,1.0,4.0,74,0.00,,SCT011,0.00,274.00,VWS V14.01,2013-03-02 16:15:00,
2013-03-02 10:17:00,25.4,18.6,30.28,North,355,0.0,7.0,75,0.00,,OVC022,0.00,214.00,VWS V14.01,2013-03-02 16:17:00,
2013-03-02 10:20:00,26.6,19.4,30.28,NNW,346,1.0,4.0,74,0.00,,SCT011,0.00,325.00,VWS V14.01,2013-03-02 16:20:00,
2013-03-02 10:22:00,25.5,18.4,30.28,WNW,303,1.0,5.0,74,0.00,,OVC022,0.00,234.00,VWS V14.01,2013-03-02 16:22:00,
2013-03-02 10:25:00,26.8,19.6,30.28,North,355,2.0,3.0,74,0.00,,SCT011,0.00,308.00,VWS V14.01,2013-03-02 16:25:00,
2013-03-02 10:27:00,25.6,18.5,30.28,NW,314,6.0,6.0,74,0.00,,OVC022,0.00,248.00,VWS V14.01,2013-03-02 16:27:00,
2013-03-02 10:30:00,27.0,19.8,30.29,NW,308,2.0,3.0,74,0.00,,SCT011,0.00,288.00,VWS V14.01,2013-03-02 16:30:00,
2013-03-02 10:33:00,25.6,18.5,30.28,NNW,346,1.0,3.0,74,0.00,,OVC022,0.00,262.00,VWS V14.01,2013-03-02 16:33:00,
2013-03-02 10:35:00,27.2,20.0,30.29,NNW,338,0.0,2.0,74,0.00,,SCT011,0.00,323.00,VWS V14.01,2013-03-02 16:35:00,
2013-03-02 10:38:00,25.7,18.6,30.28,NNE,16,4.0,4.0,74,0.00,,OVC022,0.00,227.00,VWS V14.01,2013-03-02 16:38:00,
2013-03-02 10:40:00,27.4,19.9,30.29,North,350,0.0,6.0,73,0.00,,SCT011,0.00,297.00,VWS V14.01,2013-03-02 16:40:00,
2013-03-02 10:43:00,25.8,18.7,30.28,NNE,21,2.0,3.0,74,0.00,,OVC022,0.00,232.00,VWS V14.01,2013-03-02 16:43:00,
2013-03-02 10:45:00,27.5,20.0,30.28,North,360,0.0,3.0,73,0.00,,SCT011,0.00,313.00,VWS V14.01,2013-03-02 16:45:00,
2013-03-02 10:48:00,25.8,18.7,30.29,North,10,1.0,3.0,74,0.00,,OVC022,0.00,234.00,VWS V14.01,2013-03-02 16:48:00,
2013-03-02 10:50:00,27.7,20.2,30.28,NW,315,6.0,6.0,73,0.00,,SCT011,0.00,299.00,VWS V14.01,2013-03-02 16:50:00,
2013-03-02 10:53:00,25.8,18.4,30.29,NNE,13,3.0,4.0,73,0.00,,OVC022,0.00,241.00,VWS V14.01,2013-03-02 16:53:00,
2013-03-02 10:55:00,27.6,19.8,30.28,NNW,333,2.0,9.0,72,0.00,,SCT011,0.00,425.00,VWS V14.01,2013-03-02 16:55:00,
2013-03-02 10:58:00,25.9,18.8,30.29,NW,313,2.0,3.0,74,0.00,,OVC022,0.00,269.00,VWS V14.01,2013-03-02 16:58:00,
2013-03-02 11:00:00,27.6,19.4,30.28,NNW,332,2.0,5.0,71,0.00,,SCT011,0.00,403.00,VWS V14.01,2013-03-02 17:00:00,
2013-03-02 11:03:00,26.1,19.0,30.29,West,281,3.0,3.0,74,0.00,,OVC022,0.00,255.00,VWS V14.01,2013-03-02 17:03:00,
2013-03-02 11:05:00,27.9,20.4,30.28,NNW,337,2.0,6.0,73,0.00,,SCT011,0.00,462.00,VWS V14.01,2013-03-02 17:05:00,
2013-03-02 11:08:00,26.3,19.1,30.29,NW,306,0.0,6.0,74,0.00,,OVC022,0.00,295.00,VWS V14.01,2013-03-02 17:08:00,
2013-03-02 11:10:00,28.4,21.2,30.28,WNW,297,5.0,10.0,74,0.00,,SCT011,0.00,443.00,VWS V14.01,2013-03-02 17:10:00,
2013-03-02 11:13:00,26.3,19.1,30.29,WNW,286,1.0,3.0,74,0.00,,OVC022,0.00,267.00,VWS V14.01,2013-03-02 17:13:00,
2013-03-02 11:15:00,28.8,21.2,30.27,North,349,0.0,6.0,73,0.00,,SCT011,0.00,527.00,VWS V14.01,2013-03-02 17:15:00,
2013-03-02 11:18:00,26.5,19.4,30.28,NNW,333,0.0,3.0,74,0.00,,OVC022,0.00,325.00,VWS V14.01,2013-03-02 17:18:00,
2013-03-02 11:20:00,29.2,21.6,30.27,NNW,341,0.0,5.0,73,0.00,,SCT011,0.00,462.00,VWS V14.01,2013-03-02 17:20:00,
2013-03-02 11:23:00,26.7,19.5,30.28,NNW,347,1.0,3.0,74,0.00,,OVC022,0.00,304.00,VWS V14.01,2013-03-02 17:23:00,
2013-03-02 11:25:00,29.6,21.4,30.27,North,11,1.0,6.0,71,0.00,,SCT011,0.00,390.00,VWS V14.01,2013-03-02 17:25:00,
2013-03-02 11:28:00,26.8,19.6,30.28,NNE,18,1.0,3.0,74,0.00,,OVC022,0.00,295.00,VWS V14.01,2013-03-02 17:28:00,
2013-03-02 11:30:00,29.8,21.9,30.27,WNW,290,0.0,4.0,72,0.00,,SCT011,0.00,543.00,VWS V14.01,2013-03-02 17:30:00,
2013-03-02 11:33:00,27.1,19.9,30.29,NNW,340,2.0,2.0,74,0.00,,OVC022,0.00,304.00,VWS V14.01,2013-03-02 17:33:00,
2013-03-02 11:35:00,30.4,22.8,30.27,NNW,343,1.0,4.0,73,0.00,,SCT011,0.00,550.00,VWS V14.01,2013-03-02 17:35:00,
2013-03-02 11:38:00,27.3,20.1,30.29,West,259,2.0,6.0,74,0.00,,OVC022,0.00,320.00,VWS V14.01,2013-03-02 17:38:00,
2013-03-02 11:40:00,30.8,22.9,30.27,West,264,3.0,5.0,72,0.00,,SCT011,0.00,517.00,VWS V14.01,2013-03-02 17:40:00,
2013-03-02 11:43:00,27.4,19.9,30.29,North,9,0.0,3.0,73,0.00,,OVC022,0.00,302.00,VWS V14.01,2013-03-02 17:43:00,
2013-03-02 11:45:00,30.9,22.3,30.26,NNW,336,1.0,9.0,70,0.00,,SCT011,0.00,469.00,VWS V14.01,2013-03-02 17:45:00,
2013-03-02 11:48:00,27.6,20.4,30.28,North,9,5.0,5.0,74,0.00,,OVC022,0.00,301.00,VWS V14.01,2013-03-02 17:48:00,
2013-03-02 11:50:00,31.0,22.7,30.26,North,5,2.0,8.0,71,0.00,,SCT011,0.00,1009.00,VWS V14.01,2013-03-02 17:50:00,
2013-03-02 11:53:00,27.6,19.8,30.28,NNW,327,2.0,9.0,72,0.00,,OVC022,0.00,350.00,VWS V14.01,2013-03-02 17:53:00,
2013-03-02 11:55:00,31.5,22.9,30.26,NNE,13,0.0,5.0,70,0.00,,SCT011,0.00,1069.00,VWS V14.01,2013-03-02 17:55:00,
2013-03-02 11:58:00,27.6,19.8,30.28,North,355,1.0,2.0,72,0.00,,OVC022,0.00,392.00,VWS V14.01,2013-03-02 17:58:00,
2013-03-02 12:00:00,31.6,22.3,30.25,NNE,15,4.0,5.0,68,0.00,,SCT011,0.00,425.00,VWS V14.01,2013-03-02 18:00:00,
2013-03-02 12:03:00,27.7,19.9,30.28,North,9,3.0,6.0,72,0.00,,OVC022,0.00,452.00,VWS V14.01,2013-03-02 18:03:00,
2013-03-02 12:05:00,31.8,22.8,30.25,NE,42,2.0,5.0,69,0.00,,SCT011,0.00,366.00,VWS V14.01,2013-03-02 18:05:00,
2013-03-02 12:08:00,28.2,21.3,30.28,NW,310,1.0,7.0,75,0.00,,OVC022,0.00,462.00,VWS V14.01,2013-03-02 18:08:00,
2013-03-02 12:10:00,31.4,21.7,30.25,NE,56,1.0,6.0,67,0.00,,SCT011,0.00,898.00,VWS V14.01,2013-03-02 18:10:00,
2013-03-02 12:13:00,28.6,21.1,30.28,North,349,0.0,6.0,73,0.00,,OVC022,0.00,527.00,VWS V14.01,2013-03-02 18:13:00,
2013-03-02 12:15:00,31.2,21.5,30.25,NW,325,0.0,5.0,67,0.00,,SCT011,0.00,381.00,VWS V14.01,2013-03-02 18:15:00,
2013-03-02 12:18:00,29.0,21.1,30.27,NNE,12,0.0,3.0,72,0.00,,OVC022,0.00,494.00,VWS V14.01,2013-03-02 18:18:00,
2013-03-02 12:20:00,31.1,21.4,30.25,North,9,3.0,4.0,67,0.00,,SCT011,0.00,313.00,VWS V14.01,2013-03-02 18:20:00,
2013-03-02 12:23:00,29.4,21.2,30.27,North,5,2.0,5.0,71,0.00,,OVC022,0.00,390.00,VWS V14.01,2013-03-02 18:23:00,
2013-03-02 12:25:00,31.0,21.3,30.25,NNW,347,1.0,3.0,67,0.00,,SCT011,0.00,327.00,VWS V14.01,2013-03-02 18:25:00,
2013-03-02 12:28:00,29.7,21.8,30.27,West,276,2.0,3.0,72,0.00,,OVC022,0.00,536.00,VWS V14.01,2013-03-02 18:28:00,
2013-03-02 12:30:00,31.0,22.7,30.25,North,5,2.0,4.0,71,0.00,,SCT011,0.00,352.00,VWS V14.01,2013-03-02 18:30:00,
2013-03-02 12:33:00,30.2,22.6,30.27,NW,325,1.0,3.0,73,0.00,,OVC022,0.00,550.00,VWS V14.01,2013-03-02 18:33:00,
2013-03-02 12:35:00,31.3,22.0,30.25,NNE,13,3.0,6.0,68,0.00,,SCT011,0.00,415.00,VWS V14.01,2013-03-02 18:35:00,
2013-03-02 12:38:00,30.7,23.1,30.27,West,263,4.0,4.0,73,0.00,,OVC022,0.00,427.00,VWS V14.01,2013-03-02 18:38:00,
2013-03-02 12:40:00,31.2,21.5,30.25,NNE,27,1.0,7.0,67,0.00,,SCT011,0.00,390.00,VWS V14.01,2013-03-02 18:40:00,
2013-03-02 12:44:00,30.8,22.5,30.27,NW,317,0.0,9.0,71,0.00,,OVC022,0.00,462.00,VWS V14.01,2013-03-02 18:44:00,
2013-03-02 12:45:00,31.5,22.5,30.24,WNW,296,3.0,4.0,69,0.00,,SCT011,0.00,292.00,VWS V14.01,2013-03-02 18:45:00,
2013-03-02 12:49:00,30.9,22.6,30.26,West,265,4.0,8.0,71,0.00,,OVC022,0.00,1030.00,VWS V14.01,2013-03-02 18:49:00,
2013-03-02 12:50:00,31.6,22.3,30.24,West,269,1.0,6.0,68,0.00,,SCT011,0.00,758.00,VWS V14.01,2013-03-02 18:50:00,
2013-03-02 12:54:00,31.3,23.7,30.26,North,9,5.0,5.0,73,0.00,,OVC022,0.00,1058.00,VWS V14.01,2013-03-02 18:54:00,
2013-03-02 12:55:00,31.8,22.8,30.24,North,360,3.0,4.0,69,0.00,,SCT011,0.00,383.00,VWS V14.01,2013-03-02 18:55:00,
2013-03-02 12:59:00,31.6,21.9,30.26,NNW,345,1.0,5.0,67,0.00,,OVC022,0.00,439.00,VWS V14.01,2013-03-02 18:59:00,
2013-03-02 13:00:00,32.0,22.6,30.24,NNW,338,1.0,3.0,68,0.00,,SCT011,0.00,271.00,VWS V14.01,2013-03-02 19:00:00,
2013-03-02 13:04:00,31.8,23.1,30.25,NNE,24,2.0,5.0,70,0.00,,BKN024,0.00,889.00,VWS V14.01,2013-03-02 19:04:00,
2013-03-02 13:05:00,32.3,22.6,30.24,North,9,1.0,3.0,67,0.00,,SCT011,0.00,814.00,VWS V14.01,2013-03-02 19:05:00,
2013-03-02 13:09:00,31.5,21.8,30.25,WNW,292,5.0,6.0,67,0.00,,BKN024,0.00,898.00,VWS V14.01,2013-03-02 19:09:00,
2013-03-02 13:10:00,32.6,22.5,30.24,North,9,2.0,4.0,66,0.00,,SCT011,0.00,831.00,VWS V14.01,2013-03-02 19:10:00,
2013-03-02 13:14:00,31.3,22.0,30.25,North,5,3.0,5.0,68,0.00,,BKN024,0.00,404.00,VWS V14.01,2013-03-02 19:14:00,
2013-03-02 13:15:00,32.8,22.7,30.23,NNE,13,4.0,5.0,66,0.00,,SCT011,0.00,779.00,VWS V14.01,2013-03-02 19:15:00,
2013-03-02 13:19:00,31.2,21.5,30.25,NW,326,3.0,4.0,67,0.00,,SCT024,0.00,352.00,VWS V14.01,2013-03-02 19:19:00,
2013-03-02 13:20:00,33.3,24.6,30.23,North,5,4.0,4.0,70,0.00,,SCT011,0.00,752.00,VWS V14.01,2013-03-02 19:20:00,
2013-03-02 13:24:00,31.0,21.3,30.25,North,355,0.0,3.0,67,0.00,,SCT024,0.00,288.00,VWS V14.01,2013-03-02 19:24:00,
2013-03-02 13:25:00,33.8,24.0,30.23,NNW,330,0.0,4.0,67,0.00,,SCT011,0.00,752.00,VWS V14.01,2013-03-02 19:25:00,
2013-03-02 13:29:00,30.9,21.9,30.25,NW,325,0.0,3.0,69,0.00,,SCT024,0.00,352.00,VWS V14.01,2013-03-02 19:29:00,
2013-03-02 13:30:00,34.4,24.2,30.23,NNE,33,3.0,5.0,66,0.00,,SCT011,0.00,714.00,VWS V14.01,2013-03-02 19:30:00,
2013-03-02 13:34:00,31.2,22.6,30.25,North,360,0.0,3.0,70,0.00,,SCT024,0.00,415.00,VWS V14.01,2013-03-02 19:34:00,
2013-03-02 13:35:00,34.4,22.4,30.23,WSW,246,6.0,8.0,61,0.00,,SCT011,0.00,696.00,VWS V14.01,2013-03-02 19:35:00,
2013-03-02 13:39:00,31.3,22.0,30.25,NNE,30,3.0,7.0,68,0.00,,SCT024,0.00,350.00,VWS V14.01,2013-03-02 19:39:00,
2013-03-02 13:40:00,34.0,22.4,30.23,West,271,6.0,9.0,62,0.00,,SCT011,0.00,677.00,VWS V14.01,2013-03-02 19:40:00,
2013-03-02 13:44:00,31.4,23.1,30.25,NNE,15,0.0,3.0,71,0.00,,SCT024,0.00,292.00,VWS V14.01,2013-03-02 19:44:00,
2013-03-02 13:45:00,33.5,22.3,30.23,WSW,250,3.0,9.0,63,0.00,,SCT011,0.00,629.00,VWS V14.01,2013-03-02 19:45:00,
2013-03-02 13:49:00,31.5,22.2,30.24,West,259,5.0,6.0,68,0.00,,SCT024,0.00,758.00,VWS V14.01,2013-03-02 19:49:00,
2013-03-02 13:50:00,33.5,23.4,30.23,North,5,2.0,9.0,66,0.00,,SCT011,0.00,626.00,VWS V14.01,2013-03-02 19:50:00,
2013-03-02 13:54:00,31.8,22.8,30.24,North,360,0.0,3.0,69,0.00,,SCT024,0.00,385.00,VWS V14.01,2013-03-02 19:54:00,
2013-03-02 13:55:00,33.9,21.9,30.23,NNW,329,2.0,4.0,61,0.00,,SCT011,0.00,615.00,VWS V14.01,2013-03-02 19:55:00,
2013-03-02 13:59:00,32.0,23.0,30.24,NNW,338,0.0,3.0,69,0.00,,SCT024,0.00,271.00,VWS V14.01,2013-03-02 19:59:00,
2013-03-02 14:00:00,34.0,23.1,30.23,NNW,337,1.0,7.0,64,0.00,,SCT011,0.00,601.00,VWS V14.01,2013-03-02 20:00:00,
2013-03-02 14:04:00,32.3,22.9,30.24,North,10,0.0,3.0,68,0.00,,FEW025,0.00,814.00,VWS V14.01,2013-03-02 20:04:00,
2013-03-02 14:05:00,34.4,23.9,30.23,North,350,0.0,5.0,65,0.00,,SCT011,0.00,610.00,VWS V14.01,2013-03-02 20:05:00,
2013-03-02 14:09:00,32.5,22.8,30.24,NNW,336,3.0,4.0,67,0.00,,FEW025,0.00,831.00,VWS V14.01,2013-03-02 20:09:00,
2013-03-02 14:10:00,34.4,22.7,30.23,WSW,245,5.0,11.0,62,0.00,,SCT011,0.00,591.00,VWS V14.01,2013-03-02 20:10:00,
2013-03-02 14:15:00,32.8,23.1,30.23,NNE,28,0.0,4.0,67,0.00,,FEW025,0.00,777.00,VWS V14.01,2013-03-02 20:15:00,
2013-03-02 14:20:00,33.1,24.7,30.23,North,5,1.0,4.0,71,0.00,,FEW025,0.00,654.00,VWS V14.01,2013-03-02 20:20:00,
2013-03-02 14:25:00,33.7,23.6,30.23,NNW,331,2.0,4.0,66,0.00,,FEW025,0.00,752.00,VWS V14.01,2013-03-02 20:25:00,
2013-03-02 14:30:00,34.4,24.6,30.23,NNW,346,2.0,5.0,67,0.00,,FEW025,0.00,714.00,VWS V14.01,2013-03-02 20:30:00,
2013-03-02 14:35:00,34.4,22.0,30.23,WSW,241,4.0,8.0,60,0.00,,FEW025,0.00,696.00,VWS V14.01,2013-03-02 20:35:00,
2013-03-02 14:40:00,34.0,23.1,30.23,West,271,3.0,9.0,64,0.00,,FEW025,0.00,677.00,VWS V14.01,2013-03-02 20:40:00,
2013-03-02 14:45:00,33.5,22.3,30.23,West,271,0.0,9.0,63,0.00,,FEW025,0.00,643.00,VWS V14.01,2013-03-02 20:45:00,
2013-03-02 14:50:00,33.5,23.4,30.23,North,10,2.0,9.0,66,0.00,,FEW025,0.00,601.00,VWS V14.01,2013-03-02 20:50:00,
2013-03-02 14:55:00,33.9,21.9,30.23,NNW,329,3.0,4.0,61,0.00,,FEW025,0.00,619.00,VWS V14.01,2013-03-02 20:55:00,
2013-03-02 15:00:00,34.0,23.1,30.23,NNW,337,1.0,7.0,64,0.00,,FEW025,0.00,608.00,VWS V14.01,2013-03-02 21:00:00,
2013-03-02 15:05:00,34.4,23.1,30.23,North,350,0.0,5.0,63,0.00,,FEW027,0.00,615.00,VWS V14.01,2013-03-02 21:05:00,
2013-03-02 15:10:00,34.4,22.7,30.23,West,275,3.0,11.0,62,0.00,,FEW027,0.00,591.00,VWS V14.01,2013-03-02 21:10:00,
2013-03-02 15:15:00,34.0,22.7,30.23,NNW,337,0.0,9.0,63,0.00,,FEW027,0.00,591.00,VWS V14.01,2013-03-02 21:15:00,
2013-03-02 15:20:00,34.4,23.1,30.23,WSW,250,1.0,5.0,63,0.00,,FEW027,0.00,570.00,VWS V14.01,2013-03-02 21:20:00,
2013-03-02 15:25:00,34.9,24.0,30.23,NW,315,2.0,3.0,64,0.00,,FEW027,0.00,570.00,VWS V14.01,2013-03-02 21:25:00,
2013-03-02 15:30:00,32.8,21.6,30.22,WNW,295,4.0,6.0,63,0.00,,SCT011,0.00,306.00,VWS V14.01,2013-03-02 21:30:00,
2013-03-02 15:31:00,35.1,22.6,30.22,NNE,18,0.0,6.0,60,0.00,,FEW027,0.00,517.00,VWS V14.01,2013-03-02 21:31:00,
2013-03-02 15:35:00,33.0,22.2,30.22,SW,234,4.0,4.0,64,0.00,,SCT011,0.00,313.00,VWS V14.01,2013-03-02 21:35:00,
2013-03-02 15:36:00,35.0,22.5,30.22,West,272,2.0,6.0,60,0.00,,FEW027,0.00,492.00,VWS V14.01,2013-03-02 21:36:00,
2013-03-02 15:40:00,33.1,21.1,30.22,West,264,3.0,8.0,61,0.00,,SCT011,0.00,258.00,VWS V14.01,2013-03-02 21:40:00,
2013-03-02 15:41:00,34.9,22.0,30.22,NNW,337,1.0,1.0,59,0.00,,FEW027,0.00,272.00,VWS V14.01,2013-03-02 21:41:00,
2013-03-02 15:45:00,32.9,21.7,30.22,WNW,300,0.0,8.0,63,0.00,,SCT011,0.00,244.00,VWS V14.01,2013-03-02 21:45:00,
2013-03-02 15:46:00,34.6,21.8,30.22,NNW,344,1.0,1.0,59,0.00,,FEW027,0.00,468.00,VWS V14.01,2013-03-02 21:46:00,
2013-03-02 15:50:00,32.9,21.3,30.22,West,278,3.0,5.0,62,0.00,,SCT011,0.00,230.00,VWS V14.01,2013-03-02 21:50:00,
2013-03-02 15:51:00,34.4,22.7,30.22,West,274,0.0,0.0,62,0.00,,FEW027,0.00,464.00,VWS V14.01,2013-03-02 21:51:00,
2013-03-02 15:55:00,32.8,20.8,30.22,West,268,2.0,5.0,61,0.00,,SCT011,0.00,220.00,VWS V14.01,2013-03-02 21:55:00,
2013-03-02 15:56:00,34.4,22.4,30.22,WNW,292,3.0,3.0,61,0.00,,FEW027,0.00,415.00,VWS V14.01,2013-03-02 21:56:00,
2013-03-02 16:00:00,32.6,21.4,30.22,West,270,0.0,5.0,63,0.00,,SCT011,0.00,197.00,VWS V14.01,2013-03-02 22:00:00,
2013-03-02 16:01:00,34.2,22.2,30.22,WSW,238,6.0,6.0,61,0.00,,FEW027,0.00,431.00,VWS V14.01,2013-03-02 22:01:00,
2013-03-02 16:05:00,32.6,21.4,30.22,WSW,256,7.0,9.0,63,0.00,,SCT011,0.00,181.00,VWS V14.01,2013-03-02 22:05:00,
2013-03-02 16:06:00,33.8,21.4,30.22,North,355,6.0,10.0,60,0.00,,CLR,0.00,388.00,VWS V14.01,2013-03-02 22:06:00,
2013-03-02 16:10:00,32.5,21.3,30.22,NW,306,2.0,8.0,63,0.00,,SCT011,0.00,167.00,VWS V14.01,2013-03-02 22:10:00,
2013-03-02 16:11:00,33.8,22.5,30.22,West,264,7.0,7.0,63,0.00,,CLR,0.00,376.00,VWS V14.01,2013-03-02 22:11:00,
2013-03-02 16:15:00,32.5,21.3,30.22,West,267,3.0,4.0,63,0.00,,SCT011,0.00,148.00,VWS V14.01,2013-03-02 22:15:00,
2013-03-02 16:16:00,33.4,21.0,30.23,WSW,238,9.0,9.0,60,0.00,,CLR,0.00,336.00,VWS V14.01,2013-03-02 22:16:00,
2013-03-02 16:20:00,32.3,20.8,30.22,ENE,58,0.0,7.0,62,0.00,,SCT011,0.00,132.00,VWS V14.01,2013-03-02 22:20:00,
2013-03-02 16:21:00,32.7,21.1,30.23,West,271,0.0,3.0,62,0.00,,CLR,0.00,334.00,VWS V14.01,2013-03-02 22:21:00,
2013-03-02 16:25:00,32.1,21.3,30.22,ENE,58,0.0,2.0,64,0.00,,SCT011,0.00,114.00,VWS V14.01,2013-03-02 22:25:00,
2013-03-02 16:26:00,32.7,21.9,30.23,WSW,240,2.0,6.0,64,0.00,,CLR,0.00,313.00,VWS V14.01,2013-03-02 22:26:00,
2013-03-02 16:30:00,32.1,20.9,30.22,West,265,0.0,3.0,63,0.00,,SCT011,0.00,97.00,VWS V14.01,2013-03-02 22:30:00,
2013-03-02 16:31:00,32.9,21.7,30.22,NW,308,3.0,4.0,63,0.00,,CLR,0.00,299.00,VWS V14.01,2013-03-02 22:31:00,
2013-03-02 16:35:00,31.9,20.8,30.22,WNW,302,0.0,6.0,63,0.00,,SCT011,0.00,83.00,VWS V14.01,2013-03-02 22:35:00,
2013-03-02 16:36:00,33.1,21.9,30.22,WSW,255,3.0,6.0,63,0.00,,CLR,0.00,292.00,VWS V14.01,2013-03-02 22:36:00,
2013-03-02 16:40:00,31.7,20.9,30.22,WNW,302,0.0,2.0,64,0.00,,SCT011,0.00,65.00,VWS V14.01,2013-03-02 22:40:00,
2013-03-02 16:41:00,33.0,21.8,30.22,NW,309,2.0,4.0,63,0.00,,CLR,0.00,258.00,VWS V14.01,2013-03-02 22:41:00,
2013-03-02 16:45:00,31.5,20.7,30.22,West,265,0.0,5.0,64,0.00,,SCT011,0.00,49.00,VWS V14.01,2013-03-02 22:45:00,
2013-03-02 16:46:00,32.9,22.1,30.22,WNW,299,0.0,0.0,64,0.00,,CLR,0.00,244.00,VWS V14.01,2013-03-02 22:46:00,
2013-03-02 16:50:00,31.2,20.5,30.22,NW,311,0.0,3.0,64,0.00,,SCT011,0.00,35.00,VWS V14.01,2013-03-02 22:50:00,
2013-03-02 16:51:00,32.9,21.3,30.22,West,278,2.0,3.0,62,0.00,,CLR,0.00,230.00,VWS V14.01,2013-03-02 22:51:00,
2013-03-02 16:55:00,30.8,20.4,30.22,WNW,287,0.0,4.0,65,0.00,,SCT011,0.00,21.00,VWS V14.01,2013-03-02 22:55:00,
2013-03-02 16:57:00,32.7,21.1,30.22,West,281,0.0,3.0,62,0.00,,CLR,0.00,211.00,VWS V14.01,2013-03-02 22:57:00,
2013-03-02 17:00:00,30.5,20.1,30.22,WNW,288,2.0,2.0,65,0.00,,SCT011,0.00,12.00,VWS V14.01,2013-03-02 23:00:00,
2013-03-02 17:02:00,32.6,21.4,30.22,WSW,256,0.0,3.0,63,0.00,,CLR,0.00,188.00,VWS V14.01,2013-03-02 23:02:00,
2013-03-02 17:05:00,30.1,20.1,30.22,West,262,0.0,3.0,66,0.00,,SCT011,0.00,7.00,VWS V14.01,2013-03-02 23:05:00,
2013-03-02 17:07:00,32.6,21.0,30.22,West,281,0.0,8.0,62,0.00,,CLR,0.00,179.00,VWS V14.01,2013-03-02 23:07:00,
2013-03-02 17:10:00,29.9,19.9,30.22,West,261,0.0,1.0,66,0.00,,SCT011,0.00,0.00,VWS V14.01,2013-03-02 23:10:00,
2013-03-02 17:12:00,32.5,21.3,30.22,NW,306,0.0,2.0,63,0.00,,CLR,0.00,162.00,VWS V14.01,2013-03-02 23:12:00,
2013-03-02 17:15:00,29.7,20.1,30.22,West,261,0.0,0.0,67,0.00,,SCT011,0.00,0.00,VWS V14.01,2013-03-02 23:15:00,
2013-03-02 17:17:00,32.4,20.5,30.22,NW,326,1.0,7.0,61,0.00,,CLR,0.00,142.00,VWS V14.01,2013-03-02 23:17:00,
2013-03-02 17:20:00,29.5,19.9,30.22,West,262,0.0,0.0,67,0.00,,SCT011,0.00,0.00,VWS V14.01,2013-03-02 23:20:00,
2013-03-02 17:22:00,32.2,21.0,30.22,ENE,58,0.0,1.0,63,0.00,,CLR,0.00,128.00,VWS V14.01,2013-03-02 23:22:00,
2013-03-02 17:25:00,29.2,20.0,30.22,West,262,0.0,0.0,68,0.00,,SCT011,0.00,0.00,VWS V14.01,2013-03-02 23:25:00,
2013-03-02 17:27:00,32.1,21.3,30.22,West,271,1.0,2.0,64,0.00,,CLR,0.00,107.00,VWS V14.01,2013-03-02 23:27:00,
2013-03-02 17:30:00,28.9,19.7,30.22,West,261,0.0,0.0,68,0.00,,SCT011,0.00,0.00,VWS V14.01,2013-03-02 23:30:00,
2013-03-02 17:32:00,32.0,20.9,30.22,West,262,0.0,2.0,63,0.00,,CLR,0.00,91.00,VWS V14.01,2013-03-02 23:32:00,
2013-03-02 17:35:00,28.7,19.8,30.22,West,261,0.0,0.0,69,0.00,,SCT011,0.00,0.00,VWS V14.01,2013-03-02 23:35:00,
2013-03-02 17:37:00,31.8,20.7,30.22,WNW,302,0.0,2.0,63,0.00,,CLR,0.00,76.00,VWS V14.01,2013-03-02 23:37:00,
2013-03-02 17:40:00,28.4,19.5,30.22,West,262,0.0,0.0,69,0.00,,SCT011,0.00,0.00,VWS V14.01,2013-03-02 23:40:00,
2013-03-02 17:42:00,31.7,20.9,30.22,NNW,331,1.0,2.0,64,0.00,,CLR,0.00,60.00,VWS V14.01,2013-03-02 23:42:00,
2013-03-02 17:45:00,28.1,19.6,30.23,West,262,0.0,0.0,70,0.00,,SCT011,0.00,0.00,VWS V14.01,2013-03-02 23:45:00,
2013-03-02 17:47:00,31.4,20.6,30.22,NW,311,2.0,3.0,64,0.00,,CLR,0.00,47.00,VWS V14.01,2013-03-02 23:47:00,
2013-03-02 17:50:00,27.9,19.4,30.23,West,261,0.0,0.0,70,0.00,,SCT011,0.00,0.00,VWS V14.01,2013-03-02 23:50:00,
2013-03-02 17:52:00,31.1,20.4,30.22,West,271,2.0,2.0,64,0.00,,CLR,0.00,32.00,VWS V14.01,2013-03-02 23:52:00,
2013-03-02 17:55:00,27.7,19.5,30.23,West,262,0.0,0.0,71,0.00,,SCT011,0.00,0.00,VWS V14.01,2013-03-02 23:55:00,
2013-03-02 17:57:00,30.7,20.3,30.22,WNW,288,0.0,2.0,65,0.00,,CLR,0.00,18.00,VWS V14.01,2013-03-02 23:57:00,
2013-03-02 18:00:00,27.5,19.4,30.23,West,262,0.0,0.0,71,0.00,,SCT011,0.00,0.00,VWS V14.01,2013-03-03 00:00:00,
2013-03-02 18:02:00,30.4,20.4,30.22,West,269,0.0,3.0,66,0.00,,CLR,0.00,11.00,VWS V14.01,2013-03-03 00:02:00,
2013-03-02 18:05:00,27.3,19.5,30.23,West,262,0.0,0.0,72,0.00,,SCT011,0.00,0.00,VWS V14.01,2013-03-03 00:05:00,
2013-03-02 18:07:00,30.0,20.0,30.22,West,262,0.0,0.0,66,0.00,,CLR,0.00,7.00,VWS V14.01,2013-03-03 00:07:00,
2013-03-02 18:10:00,27.2,19.4,30.23,West,261,0.0,0.0,72,0.00,,SCT011,0.00,0.00,VWS V14.01,2013-03-03 00:10:00,
2013-03-02 18:12:00,29.8,20.2,30.22,West,262,0.0,0.0,67,0.00,,CLR,0.00,0.00,VWS V14.01,2013-03-03 00:12:00,
2013-03-02 18:15:00,27.0,19.2,30.23,West,262,0.0,0.0,72,0.00,,SCT011,0.00,0.00,VWS V14.01,2013-03-03 00:15:00,
2013-03-02 18:17:00,29.6,20.0,30.22,West,261,0.0,0.0,67,0.00,,CLR,0.00,0.00,VWS V14.01,2013-03-03 00:17:00,
2013-03-02 18:20:00,26.8,19.0,30.23,West,262,0.0,0.0,72,0.00,,SCT011,0.00,0.00,VWS V14.01,2013-03-03 00:20:00,
2013-03-02 18:23:00,29.4,19.8,30.22,West,262,0.0,0.0,67,0.00,,CLR,0.00,0.00,VWS V14.01,2013-03-03 00:23:00,
2013-03-02 18:25:00,26.6,19.1,30.23,West,261,0.0,0.0,73,0.00,,SCT011,0.00,0.00,VWS V14.01,2013-03-03 00:25:00,
2013-03-02 18:28:00,29.1,19.9,30.22,West,262,0.0,0.0,68,0.00,,CLR,0.00,0.00,VWS V14.01,2013-03-03 00:28:00,
2013-03-02 18:30:00,26.4,19.2,30.23,West,262,0.0,0.0,74,0.00,,SCT011,0.00,0.00,VWS V14.01,2013-03-03 00:30:00,
2013-03-02 18:33:00,28.8,19.6,30.22,West,262,0.0,0.0,68,0.00,,CLR,0.00,0.00,VWS V14.01,2013-03-03 00:33:00,
2013-03-02 18:35:00,26.2,19.4,30.23,West,262,0.0,1.0,75,0.00,,SCT011,0.00,0.00,VWS V14.01,2013-03-03 00:35:00,
2013-03-02 18:38:00,28.5,19.6,30.22,West,262,0.0,0.0,69,0.00,,CLR,0.00,0.00,VWS V14.01,2013-03-03 00:38:00,
2013-03-02 18:40:00,26.0,19.2,30.23,West,262,0.0,0.0,75,0.00,,SCT011,0.00,0.00,VWS V14.01,2013-03-03 00:40:00,
2013-03-02 18:43:00,28.3,19.5,30.22,West,262,0.0,0.0,69,0.00,,CLR,0.00,0.00,VWS V14.01,2013-03-03 00:43:00,
2013-03-02 18:45:00,25.9,19.1,30.23,West,261,0.0,0.0,75,0.00,,SCT011,0.00,0.00,VWS V14.01,2013-03-03 00:45:00,
2013-03-02 18:48:00,28.1,19.6,30.23,West,262,0.0,0.0,70,0.00,,CLR,0.00,0.00,VWS V14.01,2013-03-03 00:48:00,
2013-03-02 18:50:00,25.7,18.9,30.23,West,261,0.0,0.0,75,0.00,,SCT011,0.00,0.00,VWS V14.01,2013-03-03 00:50:00,
2013-03-02 18:53:00,27.8,19.3,30.23,West,262,0.0,0.0,70,0.00,,CLR,0.00,0.00,VWS V14.01,2013-03-03 00:53:00,
2013-03-02 18:55:00,25.6,19.1,30.23,West,262,0.0,0.0,76,0.00,,SCT011,0.00,0.00,VWS V14.01,2013-03-03 00:55:00,
2013-03-02 18:58:00,27.6,19.4,30.23,West,261,0.0,0.0,71,0.00,,CLR,0.00,0.00,VWS V14.01,2013-03-03 00:58:00,
2013-03-02 19:00:00,25.4,19.2,30.22,West,262,0.0,0.0,77,0.00,,SCT011,0.00,0.00,VWS V14.01,2013-03-03 01:00:00,
2013-03-02 19:03:00,27.4,19.2,30.23,West,262,0.0,0.0,71,0.00,,CLR,0.00,0.00,VWS V14.01,2013-03-03 01:03:00,
2013-03-02 19:05:00,25.3,19.4,30.22,West,262,0.0,0.0,78,0.00,,SCT011,0.00,0.00,VWS V14.01,2013-03-03 01:05:00,
2013-03-02 19:08:00,27.3,19.5,30.23,West,261,0.0,0.0,72,0.00,,CLR,0.00,0.00,VWS V14.01,2013-03-03 01:08:00,
2013-03-02 19:10:00,25.2,19.3,30.22,West,262,0.0,0.0,78,0.00,,SCT011,0.00,0.00,VWS V14.01,2013-03-03 01:10:00,
2013-03-02 19:13:00,27.1,19.3,30.23,West,262,0.0,0.0,72,0.00,,CLR,0.00,0.00,VWS V14.01,2013-03-03 01:13:00,
2013-03-02 19:15:00,25.1,19.2,30.21,West,262,0.0,0.0,78,0.00,,SCT011,0.00,0.00,VWS V14.01,2013-03-03 01:15:00,
2013-03-02 19:18:00,26.9,19.1,30.23,West,262,0.0,0.0,72,0.00,,CLR,0.00,0.00,VWS V14.01,2013-03-03 01:18:00,
2013-03-02 19:20:00,25.1,19.2,30.21,West,261,0.0,0.0,78,0.00,,SCT011,0.00,0.00,VWS V14.01,2013-03-03 01:20:00,
2013-03-02 19:23:00,26.7,19.2,30.23,West,262,0.0,0.0,73,0.00,,CLR,0.00,0.00,VWS V14.01,2013-03-03 01:23:00,
2013-03-02 19:25:00,24.9,19.0,30.21,West,261,0.0,0.0,78,0.00,,SCT011,0.00,0.00,VWS V14.01,2013-03-03 01:25:00,
2013-03-02 19:28:00,26.5,19.0,30.23,West,261,0.0,0.0,73,0.00,,CLR,0.00,0.00,VWS V14.01,2013-03-03 01:28:00,
2013-03-02 19:30:00,24.8,18.9,30.21,West,262,0.0,0.0,78,0.00,,SCT011,0.00,0.00,VWS V14.01,2013-03-03 01:30:00,
2013-03-02 19:33:00,26.3,19.1,30.23,West,262,0.0,0.0,74,0.00,,CLR,0.00,0.00,VWS V14.01,2013-03-03 01:33:00,
2013-03-02 19:35:00,24.8,18.9,30.21,West,262,0.0,0.0,78,0.00,,SCT011,0.00,0.00,VWS V14.01,2013-03-03 01:35:00,
2013-03-02 19:38:00,26.1,19.3,30.23,West,262,0.0,0.0,75,0.00,,CLR,0.00,0.00,VWS V14.01,2013-03-03 01:38:00,
2013-03-02 19:40:00,24.6,19.0,30.21,West,262,0.0,0.0,79,0.00,,SCT011,0.00,0.00,VWS V14.01,2013-03-03 01:40:00,
2013-03-02 19:43:00,26.0,19.2,30.23,West,262,0.0,0.0,75,0.00,,CLR,0.00,0.00,VWS V14.01,2013-03-03 01:43:00,
2013-03-02 19:45:00,24.4,18.8,30.20,West,261,0.0,0.0,79,0.00,,SCT011,0.00,0.00,VWS V14.01,2013-03-03 01:45:00,
2013-03-02 19:48:00,25.8,19.0,30.23,West,261,0.0,0.0,75,0.00,,CLR,0.00,0.00,VWS V14.01,2013-03-03 01:48:00,
2013-03-02 19:50:00,24.3,19.0,30.20,West,262,0.0,0.0,80,0.00,,SCT011,0.00,0.00,VWS V14.01,2013-03-03 01:50:00,
2013-03-02 19:53:00,25.7,19.2,30.23,West,262,0.0,0.0,76,0.00,,CLR,0.00,0.00,VWS V14.01,2013-03-03 01:53:00,
2013-03-02 19:55:00,24.2,18.9,30.20,West,262,0.0,0.0,80,0.00,,SCT011,0.00,0.00,VWS V14.01,2013-03-03 01:55:00,
2013-03-02 19:58:00,25.5,19.0,30.23,West,261,0.0,0.0,76,0.00,,CLR,0.00,0.00,VWS V14.01,2013-03-03 01:58:00,
2013-03-02 20:00:00,24.2,18.9,30.20,West,261,0.0,0.0,80,0.00,,SCT011,0.00,0.00,VWS V14.01,2013-03-03 02:00:00,
2013-03-02 20:03:00,25.3,19.1,30.22,West,262,0.0,0.0,77,0.00,,CLR,0.00,0.00,VWS V14.01,2013-03-03 02:03:00,
2013-03-02 20:05:00,24.2,18.9,30.20,West,262,0.0,0.0,80,0.00,,SCT011,0.00,0.00,VWS V14.01,2013-03-03 02:05:00,
2013-03-02 20:08:00,25.2,19.3,30.22,West,261,0.0,0.0,78,0.00,,CLR,0.00,0.00,VWS V14.01,2013-03-03 02:08:00,
2013-03-02 20:10:00,24.1,18.8,30.20,West,262,0.0,0.0,80,0.00,,SCT011,0.00,0.00,VWS V14.01,2013-03-03 02:10:00,
2013-03-02 20:13:00,25.2,19.3,30.22,West,262,0.0,0.0,78,0.00,,CLR,0.00,0.00,VWS V14.01,2013-03-03 02:13:00,
2013-03-02 20:15:00,24.0,18.7,30.20,West,262,0.0,0.0,80,0.00,,SCT011,0.00,0.00,VWS V14.01,2013-03-03 02:15:00,
2013-03-02 20:18:00,25.1,19.2,30.21,West,262,0.0,0.0,78,0.00,,CLR,0.00,0.00,VWS V14.01,2013-03-03 02:18:00,
2013-03-02 20:20:00,23.8,18.5,30.20,West,261,0.0,0.0,80,0.00,,SCT011,0.00,0.00,VWS V14.01,2013-03-03 02:20:00,
2013-03-02 20:23:00,25.1,19.2,30.21,West,262,0.0,0.0,78,0.00,,CLR,0.00,0.00,VWS V14.01,2013-03-03 02:23:00,
2013-03-02 20:25:00,23.7,18.4,30.20,West,262,0.0,0.0,80,0.00,,SCT011,0.00,0.00,VWS V14.01,2013-03-03 02:25:00,
2013-03-02 20:29:00,24.9,19.0,30.21,West,262,0.0,0.0,78,0.00,,CLR,0.00,0.00,VWS V14.01,2013-03-03 02:29:00,
2013-03-02 20:30:00,23.6,18.4,30.20,West,262,0.0,0.0,80,0.00,,SCT011,0.00,0.00,VWS V14.01,2013-03-03 02:30:00,
2013-03-02 20:34:00,24.8,19.2,30.21,West,262,0.0,0.0,79,0.00,,CLR,0.00,0.00,VWS V14.01,2013-03-03 02:34:00,
2013-03-02 20:35:00,23.4,18.1,30.20,West,261,0.0,0.0,80,0.00,,SCT011,0.00,0.00,VWS V14.01,2013-03-03 02:35:00,
2013-03-02 20:39:00,24.7,19.1,30.21,West,262,0.0,0.0,79,0.00,,CLR,0.00,0.00,VWS V14.01,2013-03-03 02:39:00,
2013-03-02 20:40:00,23.1,17.9,30.20,West,262,0.0,0.0,80,0.00,,SCT011,0.00,0.00,VWS V14.01,2013-03-03 02:40:00,
2013-03-02 20:44:00,24.5,18.9,30.21,West,261,0.0,0.0,79,0.00,,CLR,0.00,0.00,VWS V14.01,2013-03-03 02:44:00,
2013-03-02 20:45:00,23.0,18.0,30.20,West,262,0.0,0.0,81,0.00,,SCT011,0.00,0.00,VWS V14.01,2013-03-03 02:45:00,
2013-03-02 20:49:00,24.4,18.8,30.20,West,262,0.0,0.0,79,0.00,,CLR,0.00,0.00,VWS V14.01,2013-03-03 02:49:00,
2013-03-02 20:50:00,22.7,17.8,30.20,West,262,0.0,0.0,81,0.00,,SCT011,0.00,0.00,VWS V14.01,2013-03-03 02:50:00,
2013-03-02 20:54:00,24.2,18.9,30.20,West,262,0.0,0.0,80,0.00,,CLR,0.00,0.00,VWS V14.01,2013-03-03 02:54:00,
2013-03-02 20:55:00,22.5,18.1,30.20,West,262,0.0,0.0,83,0.00,,SCT011,0.00,0.00,VWS V14.01,2013-03-03 02:55:00,
2013-03-02 20:59:00,24.2,18.9,30.20,West,262,0.0,0.0,80,0.00,,CLR,0.00,0.00,VWS V14.01,2013-03-03 02:59:00,
2013-03-02 21:00:00,22.3,18.2,30.20,West,262,0.0,0.0,84,0.00,,SCT011,0.00,0.00,VWS V14.01,2013-03-03 03:00:00,
2013-03-02 21:04:00,24.1,18.8,30.20,West,262,0.0,0.0,80,0.00,,CLR,0.00,0.00,VWS V14.01,2013-03-03 03:04:00,
2013-03-02 21:05:00,22.2,18.1,30.20,West,261,0.0,0.0,84,0.00,,SCT011,0.00,0.00,VWS V14.01,2013-03-03 03:05:00,
2013-03-02 21:09:00,24.1,18.8,30.20,West,262,0.0,0.0,80,0.00,,CLR,0.00,0.00,VWS V14.01,2013-03-03 03:09:00,
2013-03-02 21:10:00,22.1,18.0,30.20,West,261,0.0,0.0,84,0.00,,SCT011,0.00,0.00,VWS V14.01,2013-03-03 03:10:00,
2013-03-02 21:14:00,24.0,18.7,30.20,West,262,0.0,0.0,80,0.00,,CLR,0.00,0.00,VWS V14.01,2013-03-03 03:14:00,
2013-03-02 21:15:00,21.9,18.1,30.20,West,261,0.0,0.0,85,0.00,,SCT011,0.00,0.00,VWS V14.01,2013-03-03 03:15:00,
2013-03-02 21:19:00,23.9,18.6,30.20,West,262,0.0,0.0,80,0.00,,CLR,0.00,0.00,VWS V14.01,2013-03-03 03:19:00,
2013-03-02 21:20:00,21.8,18.3,30.20,West,262,0.0,0.0,86,0.00,,SCT011,0.00,0.00,VWS V14.01,2013-03-03 03:20:00,
2013-03-02 21:24:00,23.8,18.5,30.20,West,262,0.0,0.0,80,0.00,,CLR,0.00,0.00,VWS V14.01,2013-03-03 03:24:00,
2013-03-02 21:25:00,21.8,18.3,30.20,West,262,0.0,0.0,86,0.00,,SCT011,0.00,0.00,VWS V14.01,2013-03-03 03:25:00,
2013-03-02 21:29:00,23.6,18.4,30.20,West,262,0.0,0.0,80,0.00,,CLR,0.00,0.00,VWS V14.01,2013-03-03 03:29:00,
2013-03-02 21:30:00,21.7,18.2,30.20,West,262,0.0,0.0,86,0.00,,SCT011,0.00,0.00,VWS V14.01,2013-03-03 03:30:00,
2013-03-02 21:34:00,23.4,18.1,30.20,West,261,0.0,0.0,80,0.00,,CLR,0.00,0.00,VWS V14.01,2013-03-03 03:34:00,
2013-03-02 21:35:00,21.7,18.2,30.20,West,261,0.0,0.0,86,0.00,,SCT011,0.00,0.00,VWS V14.01,2013-03-03 03:35:00,
2013-03-02 21:39:00,23.2,18.0,30.20,West,262,0.0,0.0,80,0.00,,CLR,0.00,0.00,VWS V14.01,2013-03-03 03:39:00,
2013-03-02 21:40:00,21.7,18.2,30.20,West,262,0.0,0.0,86,0.00,,SCT011,0.00,0.00,VWS V14.01,2013-03-03 03:40:00,
2013-03-02 21:44:00,23.0,18.0,30.20,West,261,0.0,0.0,81,0.00,,CLR,0.00,0.00,VWS V14.01,2013-03-03 03:44:00,
2013-03-02 21:45:00,21.7,18.2,30.20,West,262,0.0,0.0,86,0.00,,SCT011,0.00,0.00,VWS V14.01,2013-03-03 03:45:00,
2013-03-02 21:49:00,22.9,18.0,30.20,West,261,0.0,0.0,81,0.00,,CLR,0.00,0.00,VWS V14.01,2013-03-03 03:49:00,
2013-03-02 21:50:00,21.7,18.2,30.20,West,262,0.0,0.0,86,0.00,,SCT011,0.00,0.00,VWS V14.01,2013-03-03 03:50:00,
2013-03-02 21:54:00,22.5,17.9,30.20,West,262,0.0,0.0,82,0.00,,CLR,0.00,0.00,VWS V14.01,2013-03-03 03:54:00,
2013-03-02 21:55:00,21.6,17.8,30.20,West,261,0.0,0.0,85,0.00,,SCT011,0.00,0.00,VWS V14.01,2013-03-03 03:55:00,
2013-03-02 21:59:00,22.4,18.3,30.20,West,262,0.0,0.0,84,0.00,,CLR,0.00,0.00,VWS V14.01,2013-03-03 03:59:00,
2013-03-02 22:00:00,21.5,18.0,30.19,West,262,0.0,0.0,86,0.00,,SCT011,0.00,0.00,VWS V14.01,2013-03-03 04:00:00,
2013-03-02 22:04:00,22.2,18.1,30.20,West,261,0.0,0.0,84,0.00,,CLR,0.00,0.00,VWS V14.01,2013-03-03 04:04:00,
2013-03-02 22:05:00,21.5,18.0,30.19,West,262,0.0,0.0,86,0.00,,SCT011,0.00,0.00,VWS V14.01,2013-03-03 04:05:00,
2013-03-02 22:09:00,22.1,18.0,30.20,West,261,0.0,0.0,84,0.00,,CLR,0.00,0.00,VWS V14.01,2013-03-03 04:09:00,
2013-03-02 22:10:00,21.4,17.9,30.19,West,261,0.0,0.0,86,0.00,,SCT011,0.00,0.00,VWS V14.01,2013-03-03 04:10:00,
2013-03-02 22:14:00,21.9,18.1,30.20,West,261,0.0,0.0,85,0.00,,CLR,0.00,0.00,VWS V14.01,2013-03-03 04:14:00,
2013-03-02 22:15:00,21.3,17.8,30.19,West,262,0.0,0.0,86,0.00,,SCT011,0.00,0.00,VWS V14.01,2013-03-03 04:15:00,
2013-03-02 22:19:00,21.8,18.3,30.20,West,262,0.0,0.0,86,0.00,,CLR,0.00,0.00,VWS V14.01,2013-03-03 04:19:00,
2013-03-02 22:20:00,21.3,17.8,30.19,West,262,0.0,0.0,86,0.00,,SCT011,0.00,0.00,VWS V14.01,2013-03-03 04:20:00,
2013-03-02 22:24:00,21.8,18.3,30.20,West,262,0.0,0.0,86,0.00,,CLR,0.00,0.00,VWS V14.01,2013-03-03 04:24:00,
2013-03-02 22:25:00,21.3,18.0,30.19,West,262,0.0,0.0,87,0.00,,SCT011,0.00,0.00,VWS V14.01,2013-03-03 04:25:00,
2013-03-02 22:30:00,21.7,18.2,30.20,West,262,0.0,0.0,86,0.00,,CLR,0.00,0.00,VWS V14.01,2013-03-03 04:30:00,
2013-03-02 22:35:00,21.7,18.2,30.20,West,261,0.0,0.0,86,0.00,,CLR,0.00,0.00,VWS V14.01,2013-03-03 04:35:00,
2013-03-02 22:40:00,21.7,18.2,30.20,West,262,0.0,0.0,86,0.00,,CLR,0.00,0.00,VWS V14.01,2013-03-03 04:40:00,
2013-03-02 22:45:00,21.7,18.2,30.20,West,262,0.0,0.0,86,0.00,,CLR,0.00,0.00,VWS V14.01,2013-03-03 04:45:00,
2013-03-02 22:50:00,21.7,18.2,30.20,West,262,0.0,0.0,86,0.00,,CLR,0.00,0.00,VWS V14.01,2013-03-03 04:50:00,
2013-03-02 22:55:00,21.6,17.8,30.20,West,261,0.0,0.0,85,0.00,,CLR,0.00,0.00,VWS V14.01,2013-03-03 04:55:00,
2013-03-02 23:00:00,21.5,18.0,30.19,West,261,0.0,0.0,86,0.00,,CLR,0.00,0.00,VWS V14.01,2013-03-03 05:00:00,
2013-03-02 23:01:00,21.5,18.0,30.19,West,262,0.0,0.0,86,0.00,,CLR,0.00,0.00,VWS V14.01,2013-03-03 05:01:00,
2013-03-02 23:04:00,21.5,18.0,30.19,West,261,0.0,0.0,86,0.00,,CLR,0.00,0.00,VWS V14.01,2013-03-03 05:04:00,
2013-03-02 23:05:00,19.9,16.7,30.17,West,262,0.0,0.0,87,0.00,,SCT011,0.00,0.00,VWS V14.01,2013-03-03 05:05:00,
2013-03-02 23:09:00,21.4,17.9,30.19,West,261,0.0,0.0,86,0.00,,CLR,0.00,0.00,VWS V14.01,2013-03-03 05:09:00,
2013-03-02 23:10:00,19.8,16.6,30.17,West,262,0.0,0.0,87,0.00,,SCT011,0.00,0.00,VWS V14.01,2013-03-03 05:10:00,
2013-03-02 23:11:00,21.4,17.9,30.19,West,262,0.0,0.0,86,0.00,,CLR,0.00,0.00,VWS V14.01,2013-03-03 05:11:00,
2013-03-02 23:15:00,19.7,16.5,30.17,West,261,0.0,0.0,87,0.00,,SCT011,0.00,0.00,VWS V14.01,2013-03-03 05:15:00,
2013-03-02 23:16:00,21.3,17.8,30.19,West,262,0.0,0.0,86,0.00,,CLR,0.00,0.00,VWS V14.01,2013-03-03 05:16:00,
2013-03-02 23:20:00,19.7,16.5,30.17,West,262,0.0,0.0,87,0.00,,SCT011,0.00,0.00,VWS V14.01,2013-03-03 05:20:00,
2013-03-02 23:21:00,21.3,17.8,30.19,West,261,0.0,0.0,86,0.00,,CLR,0.00,0.00,VWS V14.01,2013-03-03 05:21:00,
2013-03-02 23:25:00,19.5,16.5,30.17,West,262,0.0,0.0,88,0.00,,SCT011,0.00,0.00,VWS V14.01,2013-03-03 05:25:00,
2013-03-02 23:26:00,21.3,18.0,30.19,West,262,0.0,0.0,87,0.00,,CLR,0.00,0.00,VWS V14.01,2013-03-03 05:26:00,
2013-03-02 23:30:00,19.4,16.7,30.17,West,262,0.0,0.0,89,0.00,,SCT011,0.00,0.00,VWS V14.01,2013-03-03 05:30:00,
2013-03-02 23:31:00,21.2,17.7,30.18,West,261,0.0,0.0,86,0.00,,CLR,0.00,0.00,VWS V14.01,2013-03-03 05:31:00,
2013-03-02 23:35:00,19.4,16.7,30.17,West,261,0.0,0.0,89,0.00,,SCT011,0.00,0.00,VWS V14.01,2013-03-03 05:35:00,
2013-03-02 23:36:00,21.2,17.7,30.18,West,262,0.0,0.0,86,0.00,,CLR,0.00,0.00,VWS V14.01,2013-03-03 05:36:00,
2013-03-02 23:40:00,19.4,16.7,30.17,West,262,0.0,0.0,89,0.00,,SCT011,0.00,0.00,VWS V14.01,2013-03-03 05:40:00,
2013-03-02 23:41:00,21.0,17.5,30.18,West,262,0.0,0.0,86,0.00,,CLR,0.00,0.00,VWS V14.01,2013-03-03 05:41:00,
2013-03-02 23:45:00,19.5,17.0,30.17,West,262,0.0,0.0,90,0.00,,SCT011,0.00,0.00,VWS V14.01,2013-03-03 05:45:00,
2013-03-02 23:46:00,20.8,17.0,30.18,West,262,0.0,0.0,85,0.00,,CLR,0.00,0.00,VWS V14.01,2013-03-03 05:46:00,
2013-03-02 23:50:00,19.6,17.1,30.17,West,261,0.0,0.0,90,0.00,,SCT011,0.00,0.00,VWS V14.01,2013-03-03 05:50:00,
2013-03-02 23:51:00,20.6,16.8,30.18,West,262,0.0,0.0,85,0.00,,CLR,0.00,0.00,VWS V14.01,2013-03-03 05:51:00,
2013-03-02 23:55:00,19.7,17.5,30.17,West,262,0.0,0.0,91,0.00,,SCT011,0.00,0.00,VWS V14.01,2013-03-03 05:55:00,
2013-03-02 23:56:00,20.4,16.6,30.18,West,262,0.0,0.0,85,0.00,,CLR,0.00,0.00,VWS V14.01,2013-03-03 05:56:00,